﻿<?xml version="1.0" encoding="utf-8"?><gpx creator="Garmin Desktop App" version="1.1" xsi:schemaLocation="http://www.topografix.com/GPX/1/1 http://www.topografix.com/GPX/1/1/gpx.xsd http://www.garmin.com/xmlschemas/WaypointExtension/v1 http://www8.garmin.com/xmlschemas/WaypointExtensionv1.xsd http://www.garmin.com/xmlschemas/TrackPointExtension/v1 http://www.garmin.com/xmlschemas/TrackPointExtensionv1.xsd http://www.garmin.com/xmlschemas/GpxExtensions/v3 http://www8.garmin.com/xmlschemas/GpxExtensionsv3.xsd http://www.garmin.com/xmlschemas/ActivityExtension/v1 http://www8.garmin.com/xmlschemas/ActivityExtensionv1.xsd http://www.garmin.com/xmlschemas/AdventuresExtensions/v1 http://www8.garmin.com/xmlschemas/AdventuresExtensionv1.xsd http://www.garmin.com/xmlschemas/PressureExtension/v1 http://www.garmin.com/xmlschemas/PressureExtensionv1.xsd http://www.garmin.com/xmlschemas/TripExtensions/v1 http://www.garmin.com/xmlschemas/TripExtensionsv1.xsd http://www.garmin.com/xmlschemas/TripMetaDataExtensions/v1 http://www.garmin.com/xmlschemas/TripMetaDataExtensionsv1.xsd http://www.garmin.com/xmlschemas/ViaPointTransportationModeExtensions/v1 http://www.garmin.com/xmlschemas/ViaPointTransportationModeExtensionsv1.xsd http://www.garmin.com/xmlschemas/CreationTimeExtensions/v1 http://www.garmin.com/xmlschemas/CreationTimeExtensionsv1.xsd" xmlns="http://www.topografix.com/GPX/1/1" xmlns:xsi="http://www.w3.org/2001/XMLSchema-instance" xmlns:wptx1="http://www.garmin.com/xmlschemas/WaypointExtension/v1" xmlns:gpxtrx="http://www.garmin.com/xmlschemas/GpxExtensions/v3" xmlns:gpxtpx="http://www.garmin.com/xmlschemas/TrackPointExtension/v1" xmlns:gpxx="http://www.garmin.com/xmlschemas/GpxExtensions/v3" xmlns:trp="http://www.garmin.com/xmlschemas/TripExtensions/v1" xmlns:adv="http://www.garmin.com/xmlschemas/AdventuresExtensions/v1" xmlns:prs="http://www.garmin.com/xmlschemas/PressureExtension/v1" xmlns:tmd="http://www.garmin.com/xmlschemas/TripMetaDataExtensions/v1" xmlns:vptm="http://www.garmin.com/xmlschemas/ViaPointTransportationModeExtensions/v1" xmlns:ctx="http://www.garmin.com/xmlschemas/CreationTimeExtension/v1">

  <metadata>
    <link href="http://www.garmin.com">
      <text>Garmin International</text>
    </link>
    <time>2014-06-13T12:36:40Z</time>
    <bounds maxlat="45.886993445456028" maxlon="7.999445144087076" minlat="45.860676029697061" minlon="7.937791971489787" />
  </metadata>

  <trk>
    <name>traversata rima alagna</name>
    <extensions>
      <gpxx:TrackExtension>
        <gpxx:DisplayColor>Red</gpxx:DisplayColor>
      </gpxx:TrackExtension>
    </extensions>
    <trkseg>
      <trkpt lat="45.885960124433041" lon="7.999445144087076">
        <ele>1420.966064</ele>
        <time>2011-06-19T05:29:39Z</time>
      </trkpt>
      <trkpt lat="45.885956520214677" lon="7.999444473534823">
        <ele>1420.966064</ele>
        <time>2011-06-19T05:29:41Z</time>
      </trkpt>
      <trkpt lat="45.885958448052406" lon="7.999441958963871">
        <ele>1420.4853519999999</ele>
        <time>2011-06-19T05:29:42Z</time>
      </trkpt>
      <trkpt lat="45.886007146909833" lon="7.99938278272748">
        <ele>1420.966064</ele>
        <time>2011-06-19T05:29:52Z</time>
      </trkpt>
      <trkpt lat="45.886017959564924" lon="7.999369874596596">
        <ele>1420.966064</ele>
        <time>2011-06-19T05:30:02Z</time>
      </trkpt>
      <trkpt lat="45.885925926268101" lon="7.999390745535493">
        <ele>1422.4079589999999</ele>
        <time>2011-06-19T05:30:20Z</time>
      </trkpt>
      <trkpt lat="45.88578904978931" lon="7.999208187684417">
        <ele>1425.2917480000001</ele>
        <time>2011-06-19T05:30:32Z</time>
      </trkpt>
      <trkpt lat="45.885776560753584" lon="7.999189831316471">
        <ele>1425.2917480000001</ele>
        <time>2011-06-19T05:30:33Z</time>
      </trkpt>
      <trkpt lat="45.885822577401996" lon="7.999106096103787">
        <ele>1425.772461</ele>
        <time>2011-06-19T05:30:38Z</time>
      </trkpt>
      <trkpt lat="45.885861637070775" lon="7.999053876847029">
        <ele>1426.7338870000001</ele>
        <time>2011-06-19T05:30:41Z</time>
      </trkpt>
      <trkpt lat="45.885932883247733" lon="7.998852794989944">
        <ele>1428.1757809999999</ele>
        <time>2011-06-19T05:30:53Z</time>
      </trkpt>
      <trkpt lat="45.88594201952219" lon="7.998784398660064">
        <ele>1429.1369629999999</ele>
        <time>2011-06-19T05:31:06Z</time>
      </trkpt>
      <trkpt lat="45.885951574891806" lon="7.99882136285305">
        <ele>1429.6176760000001</ele>
        <time>2011-06-19T05:31:20Z</time>
      </trkpt>
      <trkpt lat="45.885894075036049" lon="7.998706446960568">
        <ele>1429.6176760000001</ele>
        <time>2011-06-19T05:31:31Z</time>
      </trkpt>
      <trkpt lat="45.88589021936059" lon="7.998663280159235">
        <ele>1430.098389</ele>
        <time>2011-06-19T05:31:35Z</time>
      </trkpt>
      <trkpt lat="45.885836156085134" lon="7.998474268242717">
        <ele>1430.098389</ele>
        <time>2011-06-19T05:31:44Z</time>
      </trkpt>
      <trkpt lat="45.886001782491803" lon="7.99839086830616">
        <ele>1429.1369629999999</ele>
        <time>2011-06-19T05:31:54Z</time>
      </trkpt>
      <trkpt lat="45.886198673397303" lon="7.998296236619353">
        <ele>1428.6564940000001</ele>
        <time>2011-06-19T05:32:25Z</time>
      </trkpt>
      <trkpt lat="45.886132624000311" lon="7.998237395659089">
        <ele>1427.2146</ele>
        <time>2011-06-19T05:32:36Z</time>
      </trkpt>
      <trkpt lat="45.88610228151083" lon="7.99814066849649">
        <ele>1426.7338870000001</ele>
        <time>2011-06-19T05:32:44Z</time>
      </trkpt>
      <trkpt lat="45.88622935116291" lon="7.998038493096829">
        <ele>1427.2146</ele>
        <time>2011-06-19T05:32:53Z</time>
      </trkpt>
      <trkpt lat="45.886231698095798" lon="7.997980071231723">
        <ele>1427.695068</ele>
        <time>2011-06-19T05:32:58Z</time>
      </trkpt>
      <trkpt lat="45.886101359501481" lon="7.997842524200678">
        <ele>1429.1369629999999</ele>
        <time>2011-06-19T05:33:12Z</time>
      </trkpt>
      <trkpt lat="45.886130277067423" lon="7.997760633006692">
        <ele>1430.098389</ele>
        <time>2011-06-19T05:33:20Z</time>
      </trkpt>
      <trkpt lat="45.886164139956236" lon="7.997690979391336">
        <ele>1431.540283</ele>
        <time>2011-06-19T05:33:28Z</time>
      </trkpt>
      <trkpt lat="45.886188028380275" lon="7.997610429301858">
        <ele>1432.5017089999999</ele>
        <time>2011-06-19T05:34:41Z</time>
      </trkpt>
      <trkpt lat="45.886253155767918" lon="7.997567849233747">
        <ele>1433.4628909999999</ele>
        <time>2011-06-19T05:34:46Z</time>
      </trkpt>
      <trkpt lat="45.886381147429347" lon="7.997515127062798">
        <ele>1434.905029</ele>
        <time>2011-06-19T05:34:57Z</time>
      </trkpt>
      <trkpt lat="45.886519365012646" lon="7.99749568104744">
        <ele>1435.3854980000001</ele>
        <time>2011-06-19T05:35:06Z</time>
      </trkpt>
      <trkpt lat="45.886591617017984" lon="7.997520156204701">
        <ele>1436.347168</ele>
        <time>2011-06-19T05:35:13Z</time>
      </trkpt>
      <trkpt lat="45.886674094945192" lon="7.997503224760294">
        <ele>1439.230957</ele>
        <time>2011-06-19T05:35:26Z</time>
      </trkpt>
      <trkpt lat="45.886831590905786" lon="7.997432481497526">
        <ele>1442.11499</ele>
        <time>2011-06-19T05:35:42Z</time>
      </trkpt>
      <trkpt lat="45.88684793561697" lon="7.997287893667817">
        <ele>1444.998779</ele>
        <time>2011-06-19T05:36:00Z</time>
      </trkpt>
      <trkpt lat="45.886846845969558" lon="7.997212037444115">
        <ele>1446.440918</ele>
        <time>2011-06-19T05:36:07Z</time>
      </trkpt>
      <trkpt lat="45.88686159811914" lon="7.997098043560982">
        <ele>1447.8828129999999</ele>
        <time>2011-06-19T05:36:16Z</time>
      </trkpt>
      <trkpt lat="45.886899651959538" lon="7.997031742706895">
        <ele>1448.8439940000001</ele>
        <time>2011-06-19T05:36:23Z</time>
      </trkpt>
      <trkpt lat="45.886952541768551" lon="7.996959574520588">
        <ele>1449.8054199999999</ele>
        <time>2011-06-19T05:36:31Z</time>
      </trkpt>
      <trkpt lat="45.886926725506783" lon="7.996887741610408">
        <ele>1450.7666019999999</ele>
        <time>2011-06-19T05:36:44Z</time>
      </trkpt>
      <trkpt lat="45.886986572295427" lon="7.996870391070843">
        <ele>1451.247314</ele>
        <time>2011-06-19T05:37:13Z</time>
      </trkpt>
      <trkpt lat="45.88696469552815" lon="7.996831582859159">
        <ele>1451.247314</ele>
        <time>2011-06-19T05:37:33Z</time>
      </trkpt>
      <trkpt lat="45.886963438242674" lon="7.996898973360658">
        <ele>1451.7280270000001</ele>
        <time>2011-06-19T05:38:00Z</time>
      </trkpt>
      <trkpt lat="45.886927479878068" lon="7.996810795739293">
        <ele>1451.247314</ele>
        <time>2011-06-19T05:38:32Z</time>
      </trkpt>
      <trkpt lat="45.886920019984245" lon="7.996815238147974">
        <ele>1452.20874</ele>
        <time>2011-06-19T05:38:34Z</time>
      </trkpt>
      <trkpt lat="45.886951871216297" lon="7.996860668063164">
        <ele>1454.612061</ele>
        <time>2011-06-19T05:39:55Z</time>
      </trkpt>
      <trkpt lat="45.886993445456028" lon="7.996741896495223">
        <ele>1455.0927730000001</ele>
        <time>2011-06-19T05:40:14Z</time>
      </trkpt>
      <trkpt lat="45.886967796832323" lon="7.996657574549317">
        <ele>1456.0539550000001</ele>
        <time>2011-06-19T05:40:19Z</time>
      </trkpt>
      <trkpt lat="45.886974669992924" lon="7.996546346694231">
        <ele>1457.4960940000001</ele>
        <time>2011-06-19T05:40:26Z</time>
      </trkpt>
      <trkpt lat="45.886921277269721" lon="7.99646076746285">
        <ele>1459.4187010000001</ele>
        <time>2011-06-19T05:40:34Z</time>
      </trkpt>
      <trkpt lat="45.886895461007953" lon="7.996405027806759">
        <ele>1460.3798830000001</ele>
        <time>2011-06-19T05:40:40Z</time>
      </trkpt>
      <trkpt lat="45.886817844584584" lon="7.996347863227129">
        <ele>1461.8220209999999</ele>
        <time>2011-06-19T05:40:49Z</time>
      </trkpt>
      <trkpt lat="45.886761518195271" lon="7.996234791353345">
        <ele>1465.1865230000001</ele>
        <time>2011-06-19T05:41:06Z</time>
      </trkpt>
      <trkpt lat="45.886751124635339" lon="7.996177794411779">
        <ele>1466.628418</ele>
        <time>2011-06-19T05:41:17Z</time>
      </trkpt>
      <trkpt lat="45.886665042489767" lon="7.996101267635822">
        <ele>1468.5512699999999</ele>
        <time>2011-06-19T05:41:29Z</time>
      </trkpt>
      <trkpt lat="45.886603267863393" lon="7.996020130813122">
        <ele>1470.9545900000001</ele>
        <time>2011-06-19T05:41:41Z</time>
      </trkpt>
      <trkpt lat="45.886515341699123" lon="7.995966235175729">
        <ele>1472.877197</ele>
        <time>2011-06-19T05:41:52Z</time>
      </trkpt>
      <trkpt lat="45.886509390547872" lon="7.99595894291997">
        <ele>1472.3964840000001</ele>
        <time>2011-06-19T05:41:53Z</time>
      </trkpt>
      <trkpt lat="45.886412328109145" lon="7.995978053659201">
        <ele>1473.838379</ele>
        <time>2011-06-19T05:42:03Z</time>
      </trkpt>
      <trkpt lat="45.886366730555892" lon="7.995928265154362">
        <ele>1475.2802730000001</ele>
        <time>2011-06-19T05:42:13Z</time>
      </trkpt>
      <trkpt lat="45.886298082768917" lon="7.995883924886584">
        <ele>1477.203125</ele>
        <time>2011-06-19T05:42:23Z</time>
      </trkpt>
      <trkpt lat="45.886250222101808" lon="7.995780156925321">
        <ele>1478.164307</ele>
        <time>2011-06-19T05:42:34Z</time>
      </trkpt>
      <trkpt lat="45.886170258745551" lon="7.995726680383086">
        <ele>1479.6062010000001</ele>
        <time>2011-06-19T05:42:44Z</time>
      </trkpt>
      <trkpt lat="45.886068334802985" lon="7.995715029537678">
        <ele>1480.5676269999999</ele>
        <time>2011-06-19T05:42:54Z</time>
      </trkpt>
      <trkpt lat="45.886004464700818" lon="7.995670270174742">
        <ele>1482.4902340000001</ele>
        <time>2011-06-19T05:43:03Z</time>
      </trkpt>
      <trkpt lat="45.885935733094811" lon="7.99563062377274">
        <ele>1482.970703</ele>
        <time>2011-06-19T05:43:12Z</time>
      </trkpt>
      <trkpt lat="45.885907486081123" lon="7.995555689558387">
        <ele>1483.4514160000001</ele>
        <time>2011-06-19T05:43:19Z</time>
      </trkpt>
      <trkpt lat="45.885856775566936" lon="7.995505733415484">
        <ele>1484.413086</ele>
        <time>2011-06-19T05:43:27Z</time>
      </trkpt>
      <trkpt lat="45.885770358145237" lon="7.995499698445201">
        <ele>1485.374268</ele>
        <time>2011-06-19T05:43:35Z</time>
      </trkpt>
      <trkpt lat="45.885688047856092" lon="7.995358798652887">
        <ele>1486.335693</ele>
        <time>2011-06-19T05:43:45Z</time>
      </trkpt>
      <trkpt lat="45.885688550770283" lon="7.995264586061239">
        <ele>1488.2583010000001</ele>
        <time>2011-06-19T05:43:57Z</time>
      </trkpt>
      <trkpt lat="45.885608922690153" lon="7.995176324620843">
        <ele>1489.7001949999999</ele>
        <time>2011-06-19T05:44:05Z</time>
      </trkpt>
      <trkpt lat="45.885542454198003" lon="7.995110861957073">
        <ele>1490.6613769999999</ele>
        <time>2011-06-19T05:44:12Z</time>
      </trkpt>
      <trkpt lat="45.885498281568289" lon="7.99507993273437">
        <ele>1492.5842290000001</ele>
        <time>2011-06-19T05:44:32Z</time>
      </trkpt>
      <trkpt lat="45.88542502373457" lon="7.995072472840548">
        <ele>1493.064697</ele>
        <time>2011-06-19T05:44:39Z</time>
      </trkpt>
      <trkpt lat="45.885264175012708" lon="7.9950628336519">
        <ele>1495.9487300000001</ele>
        <time>2011-06-19T05:44:59Z</time>
      </trkpt>
      <trkpt lat="45.88523156940937" lon="7.995066689327359">
        <ele>1497.390625</ele>
        <time>2011-06-19T05:45:11Z</time>
      </trkpt>
      <trkpt lat="45.885186223313212" lon="7.995076747611165">
        <ele>1498.351807</ele>
        <time>2011-06-19T05:45:13Z</time>
      </trkpt>
      <trkpt lat="45.885029481723905" lon="7.995064342394471">
        <ele>1499.7939449999999</ele>
        <time>2011-06-19T05:45:23Z</time>
      </trkpt>
      <trkpt lat="45.884991846978664" lon="7.995045818388462">
        <ele>1500.755371</ele>
        <time>2011-06-19T05:45:33Z</time>
      </trkpt>
      <trkpt lat="45.884919427335262" lon="7.994998292997479">
        <ele>1502.1972659999999</ele>
        <time>2011-06-19T05:45:44Z</time>
      </trkpt>
      <trkpt lat="45.884854886680841" lon="7.994963927194476">
        <ele>1502.6779790000001</ele>
        <time>2011-06-19T05:45:55Z</time>
      </trkpt>
      <trkpt lat="45.88478934019804" lon="7.994869295507669">
        <ele>1506.0424800000001</ele>
        <time>2011-06-19T05:46:09Z</time>
      </trkpt>
      <trkpt lat="45.884708119556308" lon="7.994831660762429">
        <ele>1508.926514</ele>
        <time>2011-06-19T05:46:26Z</time>
      </trkpt>
      <trkpt lat="45.884633352980018" lon="7.994769047945738">
        <ele>1510.368408</ele>
        <time>2011-06-19T05:46:41Z</time>
      </trkpt>
      <trkpt lat="45.884604267776012" lon="7.994726384058595">
        <ele>1511.3298339999999</ele>
        <time>2011-06-19T05:46:49Z</time>
      </trkpt>
      <trkpt lat="45.88456554338336" lon="7.994551453739405">
        <ele>1514.694336</ele>
        <time>2011-06-19T05:47:08Z</time>
      </trkpt>
      <trkpt lat="45.88442774489522" lon="7.994435532018542">
        <ele>1517.5783690000001</ele>
        <time>2011-06-19T05:47:29Z</time>
      </trkpt>
      <trkpt lat="45.884300926700234" lon="7.994464198127389">
        <ele>1519.981689</ele>
        <time>2011-06-19T05:47:43Z</time>
      </trkpt>
      <trkpt lat="45.884246360510588" lon="7.994451457634568">
        <ele>1520.943115</ele>
        <time>2011-06-19T05:47:51Z</time>
      </trkpt>
      <trkpt lat="45.884322132915258" lon="7.994341151788831">
        <ele>1522.8657229999999</ele>
        <time>2011-06-19T05:48:08Z</time>
      </trkpt>
      <trkpt lat="45.884311655536294" lon="7.994250375777483">
        <ele>1525.7495120000001</ele>
        <time>2011-06-19T05:48:43Z</time>
      </trkpt>
      <trkpt lat="45.884365551173687" lon="7.994199497625232">
        <ele>1529.114014</ele>
        <time>2011-06-19T05:49:03Z</time>
      </trkpt>
      <trkpt lat="45.884301429614425" lon="7.994174687191844">
        <ele>1531.5173339999999</ele>
        <time>2011-06-19T05:49:20Z</time>
      </trkpt>
      <trkpt lat="45.884237224236131" lon="7.994268229231238">
        <ele>1533.440186</ele>
        <time>2011-06-19T05:49:36Z</time>
      </trkpt>
      <trkpt lat="45.884282067418098" lon="7.99410997889936">
        <ele>1534.401611</ele>
        <time>2011-06-19T05:50:15Z</time>
      </trkpt>
      <trkpt lat="45.884398994967341" lon="7.994073182344437">
        <ele>1535.8435059999999</ele>
        <time>2011-06-19T05:50:25Z</time>
      </trkpt>
      <trkpt lat="45.884418692439795" lon="7.994112242013216">
        <ele>1537.2854</ele>
        <time>2011-06-19T05:50:40Z</time>
      </trkpt>
      <trkpt lat="45.884353648871183" lon="7.994088437408209">
        <ele>1539.2080080000001</ele>
        <time>2011-06-19T05:50:48Z</time>
      </trkpt>
      <trkpt lat="45.88429338298738" lon="7.994084749370813">
        <ele>1540.1694339999999</ele>
        <time>2011-06-19T05:50:54Z</time>
      </trkpt>
      <trkpt lat="45.88423672132194" lon="7.994064465165138">
        <ele>1541.130615</ele>
        <time>2011-06-19T05:51:02Z</time>
      </trkpt>
      <trkpt lat="45.884169330820441" lon="7.994042756035924">
        <ele>1542.572754</ele>
        <time>2011-06-19T05:51:10Z</time>
      </trkpt>
      <trkpt lat="45.884121218696237" lon="7.993995733559132">
        <ele>1543.533936</ele>
        <time>2011-06-19T05:51:20Z</time>
      </trkpt>
      <trkpt lat="45.884056845679879" lon="7.993950471282005">
        <ele>1545.456543</ele>
        <time>2011-06-19T05:51:31Z</time>
      </trkpt>
      <trkpt lat="45.884073190391064" lon="7.993896994739771">
        <ele>1547.8598629999999</ele>
        <time>2011-06-19T05:51:45Z</time>
      </trkpt>
      <trkpt lat="45.884211743250489" lon="7.993808398023248">
        <ele>1549.3020019999999</ele>
        <time>2011-06-19T05:52:01Z</time>
      </trkpt>
      <trkpt lat="45.884239990264177" lon="7.993804039433599">
        <ele>1549.3020019999999</ele>
        <time>2011-06-19T05:52:14Z</time>
      </trkpt>
      <trkpt lat="45.884113674983382" lon="7.993842093273997">
        <ele>1551.705322</ele>
        <time>2011-06-19T05:52:30Z</time>
      </trkpt>
      <trkpt lat="45.884011080488563" lon="7.993809068575501">
        <ele>1554.108643</ele>
        <time>2011-06-19T05:52:48Z</time>
      </trkpt>
      <trkpt lat="45.884107388556004" lon="7.993709994480014">
        <ele>1557.4731449999999</ele>
        <time>2011-06-19T05:53:09Z</time>
      </trkpt>
      <trkpt lat="45.88407251983881" lon="7.993673952296376">
        <ele>1560.3569339999999</ele>
        <time>2011-06-19T05:53:30Z</time>
      </trkpt>
      <trkpt lat="45.884036729112267" lon="7.993632964789867">
        <ele>1561.799072</ele>
        <time>2011-06-19T05:53:39Z</time>
      </trkpt>
      <trkpt lat="45.883991131559014" lon="7.993605975061655">
        <ele>1562.760254</ele>
        <time>2011-06-19T05:53:48Z</time>
      </trkpt>
      <trkpt lat="45.884074196219444" lon="7.993567921221256">
        <ele>1564.202393</ele>
        <time>2011-06-19T05:54:03Z</time>
      </trkpt>
      <trkpt lat="45.884136557579041" lon="7.993505643680692">
        <ele>1567.5668949999999</ele>
        <time>2011-06-19T05:54:20Z</time>
      </trkpt>
      <trkpt lat="45.884041674435139" lon="7.993540428578854">
        <ele>1568.047607</ele>
        <time>2011-06-19T05:54:29Z</time>
      </trkpt>
      <trkpt lat="45.884008649736643" lon="7.993495753034949">
        <ele>1569.489746</ele>
        <time>2011-06-19T05:54:36Z</time>
      </trkpt>
      <trkpt lat="45.884005045518279" lon="7.993419477716088">
        <ele>1571.4121090000001</ele>
        <time>2011-06-19T05:55:42Z</time>
      </trkpt>
      <trkpt lat="45.884000854566693" lon="7.993411598727107">
        <ele>1571.4121090000001</ele>
        <time>2011-06-19T05:55:43Z</time>
      </trkpt>
      <trkpt lat="45.883939750492573" lon="7.993361223489046">
        <ele>1573.334961</ele>
        <time>2011-06-19T05:55:54Z</time>
      </trkpt>
      <trkpt lat="45.883882753551006" lon="7.993307495489717">
        <ele>1574.7768550000001</ele>
        <time>2011-06-19T05:56:04Z</time>
      </trkpt>
      <trkpt lat="45.883806142956018" lon="7.99324756488204">
        <ele>1576.6994629999999</ele>
        <time>2011-06-19T05:56:17Z</time>
      </trkpt>
      <trkpt lat="45.883694076910615" lon="7.993268016725779">
        <ele>1578.6220699999999</ele>
        <time>2011-06-19T05:56:28Z</time>
      </trkpt>
      <trkpt lat="45.883595924824476" lon="7.993371365591884">
        <ele>1580.544922</ele>
        <time>2011-06-19T05:56:40Z</time>
      </trkpt>
      <trkpt lat="45.883536329492927" lon="7.993345130234957">
        <ele>1582.467529</ele>
        <time>2011-06-19T05:56:51Z</time>
      </trkpt>
      <trkpt lat="45.883474387228489" lon="7.993345046415925">
        <ele>1584.3901370000001</ele>
        <time>2011-06-19T05:57:02Z</time>
      </trkpt>
      <trkpt lat="45.883428873494267" lon="7.993360888212919">
        <ele>1586.3127440000001</ele>
        <time>2011-06-19T05:57:23Z</time>
      </trkpt>
      <trkpt lat="45.883447984233499" lon="7.9932841937989">
        <ele>1587.754639</ele>
        <time>2011-06-19T05:57:30Z</time>
      </trkpt>
      <trkpt lat="45.883491486310959" lon="7.993207164108753">
        <ele>1589.196533</ele>
        <time>2011-06-19T05:57:40Z</time>
      </trkpt>
      <trkpt lat="45.883423425257206" lon="7.993232645094395">
        <ele>1590.638428</ele>
        <time>2011-06-19T05:57:52Z</time>
      </trkpt>
      <trkpt lat="45.8833581302315" lon="7.9932358302176">
        <ele>1592.561279</ele>
        <time>2011-06-19T05:58:02Z</time>
      </trkpt>
      <trkpt lat="45.883371876552701" lon="7.993148155510426">
        <ele>1594.483643</ele>
        <time>2011-06-19T05:58:11Z</time>
      </trkpt>
      <trkpt lat="45.883453683927655" lon="7.993036760017276">
        <ele>1596.887207</ele>
        <time>2011-06-19T05:58:26Z</time>
      </trkpt>
      <trkpt lat="45.883443290367723" lon="7.99296417273581">
        <ele>1597.8486330000001</ele>
        <time>2011-06-19T05:58:37Z</time>
      </trkpt>
      <trkpt lat="45.8835359942168" lon="7.992909858003259">
        <ele>1599.77124</ele>
        <time>2011-06-19T05:59:02Z</time>
      </trkpt>
      <trkpt lat="45.883469358086586" lon="7.992985043674707">
        <ele>1602.1743160000001</ele>
        <time>2011-06-19T05:59:13Z</time>
      </trkpt>
      <trkpt lat="45.883400961756706" lon="7.993008345365524">
        <ele>1603.6164550000001</ele>
        <time>2011-06-19T05:59:24Z</time>
      </trkpt>
      <trkpt lat="45.883375899866223" lon="7.992945397272706">
        <ele>1605.05835</ele>
        <time>2011-06-19T05:59:34Z</time>
      </trkpt>
      <trkpt lat="45.883368356153369" lon="7.992862164974213">
        <ele>1606.5002440000001</ele>
        <time>2011-06-19T05:59:44Z</time>
      </trkpt>
      <trkpt lat="45.883387047797441" lon="7.992753619328141">
        <ele>1608.903564</ele>
        <time>2011-06-19T05:59:54Z</time>
      </trkpt>
      <trkpt lat="45.883399369195104" lon="7.992767784744501">
        <ele>1608.903564</ele>
        <time>2011-06-19T06:00:09Z</time>
      </trkpt>
      <trkpt lat="45.883350418880582" lon="7.992806676775217">
        <ele>1610.826172</ele>
        <time>2011-06-19T06:00:21Z</time>
      </trkpt>
      <trkpt lat="45.883290655910969" lon="7.992842132225633">
        <ele>1613.7102050000001</ele>
        <time>2011-06-19T06:00:32Z</time>
      </trkpt>
      <trkpt lat="45.883304318413138" lon="7.992774993181229">
        <ele>1614.190918</ele>
        <time>2011-06-19T06:00:40Z</time>
      </trkpt>
      <trkpt lat="45.883325440809131" lon="7.992693772539496">
        <ele>1616.5942379999999</ele>
        <time>2011-06-19T06:00:49Z</time>
      </trkpt>
      <trkpt lat="45.883317142724991" lon="7.992639457806945">
        <ele>1618.0361330000001</ele>
        <time>2011-06-19T06:01:00Z</time>
      </trkpt>
      <trkpt lat="45.883261822164059" lon="7.992701316252351">
        <ele>1619.4782709999999</ele>
        <time>2011-06-19T06:01:10Z</time>
      </trkpt>
      <trkpt lat="45.883247321471572" lon="7.992708440870047">
        <ele>1619.4782709999999</ele>
        <time>2011-06-19T06:01:23Z</time>
      </trkpt>
      <trkpt lat="45.883187977597117" lon="7.99271103926003">
        <ele>1620.439453</ele>
        <time>2011-06-19T06:02:10Z</time>
      </trkpt>
      <trkpt lat="45.883174147456884" lon="7.992732748389244">
        <ele>1620.439453</ele>
        <time>2011-06-19T06:02:11Z</time>
      </trkpt>
      <trkpt lat="45.883113043382764" lon="7.99273107200861">
        <ele>1622.362061</ele>
        <time>2011-06-19T06:02:24Z</time>
      </trkpt>
      <trkpt lat="45.883156461641192" lon="7.992605092003942">
        <ele>1624.7653809999999</ele>
        <time>2011-06-19T06:02:37Z</time>
      </trkpt>
      <trkpt lat="45.883207339793444" lon="7.992536947131157">
        <ele>1626.207275</ele>
        <time>2011-06-19T06:02:46Z</time>
      </trkpt>
      <trkpt lat="45.88319887407124" lon="7.992562428116798">
        <ele>1627.6491699999999</ele>
        <time>2011-06-19T06:02:57Z</time>
      </trkpt>
      <trkpt lat="45.883147241547704" lon="7.992553627118468">
        <ele>1628.6108400000001</ele>
        <time>2011-06-19T06:03:09Z</time>
      </trkpt>
      <trkpt lat="45.883171381428838" lon="7.992479028180242">
        <ele>1630.0527340000001</ele>
        <time>2011-06-19T06:03:20Z</time>
      </trkpt>
      <trkpt lat="45.883130645379424" lon="7.992529068142176">
        <ele>1631.975342</ele>
        <time>2011-06-19T06:03:34Z</time>
      </trkpt>
      <trkpt lat="45.883116647601128" lon="7.992507359012961">
        <ele>1634.3786620000001</ele>
        <time>2011-06-19T06:03:47Z</time>
      </trkpt>
      <trkpt lat="45.883136428892612" lon="7.992468131706119">
        <ele>1634.3786620000001</ele>
        <time>2011-06-19T06:03:58Z</time>
      </trkpt>
      <trkpt lat="45.883136847987771" lon="7.992394287139177">
        <ele>1635.820557</ele>
        <time>2011-06-19T06:04:10Z</time>
      </trkpt>
      <trkpt lat="45.883082449436188" lon="7.992395125329495">
        <ele>1637.743164</ele>
        <time>2011-06-19T06:04:21Z</time>
      </trkpt>
      <trkpt lat="45.883017322048545" lon="7.992422869428992">
        <ele>1640.1464840000001</ele>
        <time>2011-06-19T06:04:34Z</time>
      </trkpt>
      <trkpt lat="45.883062835782766" lon="7.992328237742186">
        <ele>1641.588379</ele>
        <time>2011-06-19T06:04:44Z</time>
      </trkpt>
      <trkpt lat="45.883103823289275" lon="7.99228741787374">
        <ele>1643.0302730000001</ele>
        <time>2011-06-19T06:04:53Z</time>
      </trkpt>
      <trkpt lat="45.883077587932348" lon="7.99224047921598">
        <ele>1644.953125</ele>
        <time>2011-06-19T06:05:06Z</time>
      </trkpt>
      <trkpt lat="45.882997959852219" lon="7.992256572470069">
        <ele>1646.395264</ele>
        <time>2011-06-19T06:05:16Z</time>
      </trkpt>
      <trkpt lat="45.882930317893624" lon="7.992248861119151">
        <ele>1647.837158</ele>
        <time>2011-06-19T06:05:25Z</time>
      </trkpt>
      <trkpt lat="45.882885390892625" lon="7.992253890261054">
        <ele>1649.7597659999999</ele>
        <time>2011-06-19T06:05:34Z</time>
      </trkpt>
      <trkpt lat="45.882842391729355" lon="7.992125982418656">
        <ele>1651.2016599999999</ele>
        <time>2011-06-19T06:05:48Z</time>
      </trkpt>
      <trkpt lat="45.882884049788117" lon="7.992086838930845">
        <ele>1653.6049800000001</ele>
        <time>2011-06-19T06:06:11Z</time>
      </trkpt>
      <trkpt lat="45.882938867434859" lon="7.992052976042032">
        <ele>1654.5661620000001</ele>
        <time>2011-06-19T06:06:18Z</time>
      </trkpt>
      <trkpt lat="45.883001731708646" lon="7.992034368216991">
        <ele>1655.5275879999999</ele>
        <time>2011-06-19T06:06:26Z</time>
      </trkpt>
      <trkpt lat="45.883084293454885" lon="7.99200251698494">
        <ele>1657.4501949999999</ele>
        <time>2011-06-19T06:06:35Z</time>
      </trkpt>
      <trkpt lat="45.883156294003129" lon="7.991953482851386">
        <ele>1659.372803</ele>
        <time>2011-06-19T06:06:46Z</time>
      </trkpt>
      <trkpt lat="45.883192420005798" lon="7.991904448717833">
        <ele>1660.8149410000001</ele>
        <time>2011-06-19T06:06:53Z</time>
      </trkpt>
      <trkpt lat="45.883164424449205" lon="7.991889696568251">
        <ele>1662.256836</ele>
        <time>2011-06-19T06:07:04Z</time>
      </trkpt>
      <trkpt lat="45.883061243221164" lon="7.991954991593957">
        <ele>1664.179443</ele>
        <time>2011-06-19T06:07:13Z</time>
      </trkpt>
      <trkpt lat="45.882964432239532" lon="7.991970162838697">
        <ele>1666.582764</ele>
        <time>2011-06-19T06:07:26Z</time>
      </trkpt>
      <trkpt lat="45.882854545488954" lon="7.99196345731616">
        <ele>1668.9860839999999</ele>
        <time>2011-06-19T06:07:39Z</time>
      </trkpt>
      <trkpt lat="45.882827220484614" lon="7.991946944966912">
        <ele>1669.9472659999999</ele>
        <time>2011-06-19T06:07:44Z</time>
      </trkpt>
      <trkpt lat="45.882920594885945" lon="7.991857929155231">
        <ele>1670.4279790000001</ele>
        <time>2011-06-19T06:07:55Z</time>
      </trkpt>
      <trkpt lat="45.882978932932019" lon="7.991802776232362">
        <ele>1672.350586</ele>
        <time>2011-06-19T06:08:05Z</time>
      </trkpt>
      <trkpt lat="45.883034337311983" lon="7.991742845624685">
        <ele>1673.3120120000001</ele>
        <time>2011-06-19T06:08:21Z</time>
      </trkpt>
      <trkpt lat="45.883073648437858" lon="7.991696493700147">
        <ele>1674.7539059999999</ele>
        <time>2011-06-19T06:08:29Z</time>
      </trkpt>
      <trkpt lat="45.88312896899879" lon="7.991628684103489">
        <ele>1675.7150879999999</ele>
        <time>2011-06-19T06:08:38Z</time>
      </trkpt>
      <trkpt lat="45.88316073641181" lon="7.99157545901835">
        <ele>1676.6767580000001</ele>
        <time>2011-06-19T06:08:48Z</time>
      </trkpt>
      <trkpt lat="45.883150259032845" lon="7.991572944447398">
        <ele>1677.157471</ele>
        <time>2011-06-19T06:09:16Z</time>
      </trkpt>
      <trkpt lat="45.88310357183218" lon="7.991616865620017">
        <ele>1678.1186520000001</ele>
        <time>2011-06-19T06:09:28Z</time>
      </trkpt>
      <trkpt lat="45.883016232401133" lon="7.991605633869767">
        <ele>1681.002686</ele>
        <time>2011-06-19T06:09:42Z</time>
      </trkpt>
      <trkpt lat="45.882964599877596" lon="7.99157353118062">
        <ele>1682.4445800000001</ele>
        <time>2011-06-19T06:09:51Z</time>
      </trkpt>
      <trkpt lat="45.882934927940369" lon="7.99149926751852">
        <ele>1683.886475</ele>
        <time>2011-06-19T06:10:00Z</time>
      </trkpt>
      <trkpt lat="45.882881954312325" lon="7.991453837603331">
        <ele>1685.3283690000001</ele>
        <time>2011-06-19T06:10:07Z</time>
      </trkpt>
      <trkpt lat="45.882772067561746" lon="7.991456855088472">
        <ele>1687.2509769999999</ele>
        <time>2011-06-19T06:10:20Z</time>
      </trkpt>
      <trkpt lat="45.882707694545388" lon="7.991445958614349">
        <ele>1688.2124020000001</ele>
        <time>2011-06-19T06:10:29Z</time>
      </trkpt>
      <trkpt lat="45.882642399519682" lon="7.991473283618689">
        <ele>1690.13501</ele>
        <time>2011-06-19T06:10:38Z</time>
      </trkpt>
      <trkpt lat="45.882616667076945" lon="7.991436151787639">
        <ele>1691.576904</ele>
        <time>2011-06-19T06:10:56Z</time>
      </trkpt>
      <trkpt lat="45.882522538304329" lon="7.991477642208338">
        <ele>1693.019043</ele>
        <time>2011-06-19T06:11:07Z</time>
      </trkpt>
      <trkpt lat="45.882433941587806" lon="7.991468338295817">
        <ele>1694.4609379999999</ele>
        <time>2011-06-19T06:11:18Z</time>
      </trkpt>
      <trkpt lat="45.882374262437224" lon="7.991439085453749">
        <ele>1696.383789</ele>
        <time>2011-06-19T06:11:29Z</time>
      </trkpt>
      <trkpt lat="45.882303519174457" lon="7.991448054090142">
        <ele>1697.344971</ele>
        <time>2011-06-19T06:11:40Z</time>
      </trkpt>
      <trkpt lat="45.882238894701004" lon="7.991457860916853">
        <ele>1699.267578</ele>
        <time>2011-06-19T06:11:51Z</time>
      </trkpt>
      <trkpt lat="45.88216052390635" lon="7.991431457921863">
        <ele>1701.6708980000001</ele>
        <time>2011-06-19T06:12:03Z</time>
      </trkpt>
      <trkpt lat="45.882086679339409" lon="7.991450065746903">
        <ele>1702.1513669999999</ele>
        <time>2011-06-19T06:12:14Z</time>
      </trkpt>
      <trkpt lat="45.882063629105687" lon="7.99144059419632">
        <ele>1702.1513669999999</ele>
        <time>2011-06-19T06:12:27Z</time>
      </trkpt>
      <trkpt lat="45.882069244980812" lon="7.991454843431711">
        <ele>1702.6320800000001</ele>
        <time>2011-06-19T06:12:56Z</time>
      </trkpt>
      <trkpt lat="45.882078381255269" lon="7.991437995806336">
        <ele>1701.6708980000001</ele>
        <time>2011-06-19T06:13:17Z</time>
      </trkpt>
      <trkpt lat="45.88200562633574" lon="7.991361217573285">
        <ele>1704.0742190000001</ele>
        <time>2011-06-19T06:14:13Z</time>
      </trkpt>
      <trkpt lat="45.881956089287996" lon="7.991336826235056">
        <ele>1705.5161129999999</ele>
        <time>2011-06-19T06:14:19Z</time>
      </trkpt>
      <trkpt lat="45.881920298561454" lon="7.991287373006344">
        <ele>1706.9580080000001</ele>
        <time>2011-06-19T06:14:27Z</time>
      </trkpt>
      <trkpt lat="45.88200805708766" lon="7.991218054667115">
        <ele>1708.8808590000001</ele>
        <time>2011-06-19T06:14:39Z</time>
      </trkpt>
      <trkpt lat="45.882061952725053" lon="7.991115795448422">
        <ele>1710.803467</ele>
        <time>2011-06-19T06:14:51Z</time>
      </trkpt>
      <trkpt lat="45.882114674896002" lon="7.991067934781313">
        <ele>1712.7260739999999</ele>
        <time>2011-06-19T06:15:01Z</time>
      </trkpt>
      <trkpt lat="45.882082739844918" lon="7.991039771586657">
        <ele>1712.7260739999999</ele>
        <time>2011-06-19T06:15:10Z</time>
      </trkpt>
      <trkpt lat="45.882002273574471" lon="7.99104287289083">
        <ele>1714.648682</ele>
        <time>2011-06-19T06:15:22Z</time>
      </trkpt>
      <trkpt lat="45.881964638829231" lon="7.991027785465121">
        <ele>1716.0905760000001</ele>
        <time>2011-06-19T06:15:34Z</time>
      </trkpt>
      <trkpt lat="45.88200269266963" lon="7.990952935069799">
        <ele>1718.4938959999999</ele>
        <time>2011-06-19T06:15:46Z</time>
      </trkpt>
      <trkpt lat="45.881951982155442" lon="7.99098277464509">
        <ele>1719.455322</ele>
        <time>2011-06-19T06:15:58Z</time>
      </trkpt>
      <trkpt lat="45.881906552240252" lon="7.990951426327229">
        <ele>1720.416504</ele>
        <time>2011-06-19T06:16:11Z</time>
      </trkpt>
      <trkpt lat="45.881960866972804" lon="7.990878755226731">
        <ele>1722.8198239999999</ele>
        <time>2011-06-19T06:16:22Z</time>
      </trkpt>
      <trkpt lat="45.882005877792835" lon="7.990794684737921">
        <ele>1724.2619629999999</ele>
        <time>2011-06-19T06:16:33Z</time>
      </trkpt>
      <trkpt lat="45.882072262465954" lon="7.990786554291844">
        <ele>1725.2231449999999</ele>
        <time>2011-06-19T06:16:42Z</time>
      </trkpt>
      <trkpt lat="45.882101096212864" lon="7.990749590098858">
        <ele>1725.703857</ele>
        <time>2011-06-19T06:16:57Z</time>
      </trkpt>
      <trkpt lat="45.88214828632772" lon="7.990708434954286">
        <ele>1727.6264650000001</ele>
        <time>2011-06-19T06:17:09Z</time>
      </trkpt>
      <trkpt lat="45.882199332118034" lon="7.990615731105208">
        <ele>1728.5878909999999</ele>
        <time>2011-06-19T06:17:19Z</time>
      </trkpt>
      <trkpt lat="45.882280385121703" lon="7.990566277876496">
        <ele>1730.0297849999999</ele>
        <time>2011-06-19T06:17:31Z</time>
      </trkpt>
      <trkpt lat="45.882287342101336" lon="7.990548592060804">
        <ele>1731.4716800000001</ele>
        <time>2011-06-19T06:17:42Z</time>
      </trkpt>
      <trkpt lat="45.882259095087647" lon="7.990529481321573">
        <ele>1732.9135739999999</ele>
        <time>2011-06-19T06:17:54Z</time>
      </trkpt>
      <trkpt lat="45.882355067878962" lon="7.990492349490523">
        <ele>1735.3168949999999</ele>
        <time>2011-06-19T06:18:07Z</time>
      </trkpt>
      <trkpt lat="45.882409466430545" lon="7.990504084154964">
        <ele>1736.2783199999999</ele>
        <time>2011-06-19T06:18:16Z</time>
      </trkpt>
      <trkpt lat="45.882460763677955" lon="7.990535516291857">
        <ele>1737.2395019999999</ele>
        <time>2011-06-19T06:18:27Z</time>
      </trkpt>
      <trkpt lat="45.882517760619521" lon="7.99056937918067">
        <ele>1739.1621090000001</ele>
        <time>2011-06-19T06:18:36Z</time>
      </trkpt>
      <trkpt lat="45.882541565224528" lon="7.990575581789017">
        <ele>1739.1621090000001</ele>
        <time>2011-06-19T06:18:49Z</time>
      </trkpt>
      <trkpt lat="45.882457075640559" lon="7.990454128012061">
        <ele>1741.084961</ele>
        <time>2011-06-19T06:19:01Z</time>
      </trkpt>
      <trkpt lat="45.88237845338881" lon="7.990373829379678">
        <ele>1743.4882809999999</ele>
        <time>2011-06-19T06:19:13Z</time>
      </trkpt>
      <trkpt lat="45.882310224696994" lon="7.990266792476177">
        <ele>1745.8916019999999</ele>
        <time>2011-06-19T06:19:27Z</time>
      </trkpt>
      <trkpt lat="45.882330173626542" lon="7.99024784937501">
        <ele>1747.333496</ele>
        <time>2011-06-19T06:19:38Z</time>
      </trkpt>
      <trkpt lat="45.882400162518024" lon="7.990266121923924">
        <ele>1748.7753909999999</ele>
        <time>2011-06-19T06:19:48Z</time>
      </trkpt>
      <trkpt lat="45.882416591048241" lon="7.990238964557648">
        <ele>1750.6979980000001</ele>
        <time>2011-06-19T06:19:59Z</time>
      </trkpt>
      <trkpt lat="45.88236378505826" lon="7.990175178274512">
        <ele>1751.178711</ele>
        <time>2011-06-19T06:20:10Z</time>
      </trkpt>
      <trkpt lat="45.882407622411847" lon="7.990172328427434">
        <ele>1753.101318</ele>
        <time>2011-06-19T06:20:19Z</time>
      </trkpt>
      <trkpt lat="45.882439725100994" lon="7.990157576277852">
        <ele>1754.0627440000001</ele>
        <time>2011-06-19T06:20:25Z</time>
      </trkpt>
      <trkpt lat="45.882455985993147" lon="7.990113068372011">
        <ele>1755.0239260000001</ele>
        <time>2011-06-19T06:20:42Z</time>
      </trkpt>
      <trkpt lat="45.882464535534382" lon="7.989968229085207">
        <ele>1756.9467770000001</ele>
        <time>2011-06-19T06:20:56Z</time>
      </trkpt>
      <trkpt lat="45.882468391209841" lon="7.989937886595726">
        <ele>1756.9467770000001</ele>
        <time>2011-06-19T06:21:10Z</time>
      </trkpt>
      <trkpt lat="45.882469061762094" lon="7.98982665874064">
        <ele>1757.908203</ele>
        <time>2011-06-19T06:21:46Z</time>
      </trkpt>
      <trkpt lat="45.882436288520694" lon="7.989868149161339">
        <ele>1760.311279</ele>
        <time>2011-06-19T06:21:55Z</time>
      </trkpt>
      <trkpt lat="45.882386080920696" lon="7.989951884374023">
        <ele>1761.753418</ele>
        <time>2011-06-19T06:22:06Z</time>
      </trkpt>
      <trkpt lat="45.882308129221201" lon="7.989952471107245">
        <ele>1764.1564940000001</ele>
        <time>2011-06-19T06:22:18Z</time>
      </trkpt>
      <trkpt lat="45.88234718888998" lon="7.989827496930957">
        <ele>1764.637207</ele>
        <time>2011-06-19T06:22:30Z</time>
      </trkpt>
      <trkpt lat="45.882285917177796" lon="7.989811319857836">
        <ele>1767.0405270000001</ele>
        <time>2011-06-19T06:22:42Z</time>
      </trkpt>
      <trkpt lat="45.882215173915029" lon="7.989803776144981">
        <ele>1768.0017089999999</ele>
        <time>2011-06-19T06:22:56Z</time>
      </trkpt>
      <trkpt lat="45.882218778133392" lon="7.989738481119275">
        <ele>1769.9243160000001</ele>
        <time>2011-06-19T06:23:21Z</time>
      </trkpt>
      <trkpt lat="45.882244426757097" lon="7.989644268527627">
        <ele>1771.366211</ele>
        <time>2011-06-19T06:23:31Z</time>
      </trkpt>
      <trkpt lat="45.882330760359764" lon="7.989514684304595">
        <ele>1773.769775</ele>
        <time>2011-06-19T06:23:47Z</time>
      </trkpt>
      <trkpt lat="45.882388763129711" lon="7.989376718178392">
        <ele>1775.6923830000001</ele>
        <time>2011-06-19T06:24:01Z</time>
      </trkpt>
      <trkpt lat="45.882417764514685" lon="7.989312177523971">
        <ele>1776.173096</ele>
        <time>2011-06-19T06:24:12Z</time>
      </trkpt>
      <trkpt lat="45.882394630461931" lon="7.989289378747344">
        <ele>1777.1345209999999</ele>
        <time>2011-06-19T06:24:24Z</time>
      </trkpt>
      <trkpt lat="45.88232958689332" lon="7.9893331322819">
        <ele>1779.5375979999999</ele>
        <time>2011-06-19T06:24:36Z</time>
      </trkpt>
      <trkpt lat="45.882268566638231" lon="7.989369174465537">
        <ele>1780.4990230000001</ele>
        <time>2011-06-19T06:24:48Z</time>
      </trkpt>
      <trkpt lat="45.882207462564111" lon="7.989392057061195">
        <ele>1781.940918</ele>
        <time>2011-06-19T06:25:07Z</time>
      </trkpt>
      <trkpt lat="45.88217225857079" lon="7.989378478378058">
        <ele>1782.9021</ele>
        <time>2011-06-19T06:25:12Z</time>
      </trkpt>
      <trkpt lat="45.882096653804183" lon="7.989373784512281">
        <ele>1783.863525</ele>
        <time>2011-06-19T06:25:23Z</time>
      </trkpt>
      <trkpt lat="45.882128085941076" lon="7.989278649911284">
        <ele>1786.266846</ele>
        <time>2011-06-19T06:25:35Z</time>
      </trkpt>
      <trkpt lat="45.882137976586819" lon="7.989206733182073">
        <ele>1787.70874</ele>
        <time>2011-06-19T06:26:01Z</time>
      </trkpt>
      <trkpt lat="45.882187681272626" lon="7.989163231104612">
        <ele>1788.6704099999999</ele>
        <time>2011-06-19T06:26:13Z</time>
      </trkpt>
      <trkpt lat="45.882219364866614" lon="7.989099444821477">
        <ele>1790.1123050000001</ele>
        <time>2011-06-19T06:26:23Z</time>
      </trkpt>
      <trkpt lat="45.882276697084308" lon="7.989040687680244">
        <ele>1791.073486</ele>
        <time>2011-06-19T06:26:34Z</time>
      </trkpt>
      <trkpt lat="45.882337130606174" lon="7.988986289128661">
        <ele>1793.476807</ele>
        <time>2011-06-19T06:26:45Z</time>
      </trkpt>
      <trkpt lat="45.882298573851585" lon="7.988999616354704">
        <ele>1793.9575199999999</ele>
        <time>2011-06-19T06:26:58Z</time>
      </trkpt>
      <trkpt lat="45.88228901848197" lon="7.98901654779911">
        <ele>1794.4379879999999</ele>
        <time>2011-06-19T06:27:41Z</time>
      </trkpt>
      <trkpt lat="45.882233362644911" lon="7.98896667547524">
        <ele>1795.8801269999999</ele>
        <time>2011-06-19T06:28:05Z</time>
      </trkpt>
      <trkpt lat="45.882159434258938" lon="7.988962987437844">
        <ele>1798.283203</ele>
        <time>2011-06-19T06:28:17Z</time>
      </trkpt>
      <trkpt lat="45.882078129798174" lon="7.988978996872902">
        <ele>1800.2060550000001</ele>
        <time>2011-06-19T06:28:30Z</time>
      </trkpt>
      <trkpt lat="45.882009565830231" lon="7.988921497017145">
        <ele>1801.6479489999999</ele>
        <time>2011-06-19T06:28:42Z</time>
      </trkpt>
      <trkpt lat="45.881965728476644" lon="7.988799875602126">
        <ele>1804.051514</ele>
        <time>2011-06-19T06:28:56Z</time>
      </trkpt>
      <trkpt lat="45.881906133145094" lon="7.988719157874584">
        <ele>1805.9738769999999</ele>
        <time>2011-06-19T06:29:36Z</time>
      </trkpt>
      <trkpt lat="45.881906887516379" lon="7.988623017445207">
        <ele>1808.377197</ele>
        <time>2011-06-19T06:29:48Z</time>
      </trkpt>
      <trkpt lat="45.881962878629565" lon="7.988554537296295">
        <ele>1807.8967290000001</ele>
        <time>2011-06-19T06:36:01Z</time>
      </trkpt>
      <trkpt lat="45.881962962448597" lon="7.988554118201137">
        <ele>1807.4160159999999</ele>
        <time>2011-06-19T06:36:02Z</time>
      </trkpt>
      <trkpt lat="45.88196313008666" lon="7.988553866744041">
        <ele>1808.377197</ele>
        <time>2011-06-19T06:36:03Z</time>
      </trkpt>
      <trkpt lat="45.88193379342556" lon="7.988464264199138">
        <ele>1808.8579099999999</ele>
        <time>2011-06-19T06:36:26Z</time>
      </trkpt>
      <trkpt lat="45.881875036284328" lon="7.988335518166423">
        <ele>1811.2612300000001</ele>
        <time>2011-06-19T06:36:40Z</time>
      </trkpt>
      <trkpt lat="45.881866235285997" lon="7.98826402053237">
        <ele>1812.703125</ele>
        <time>2011-06-19T06:36:51Z</time>
      </trkpt>
      <trkpt lat="45.881946869194508" lon="7.988240635022521">
        <ele>1815.1064449999999</ele>
        <time>2011-06-19T06:37:04Z</time>
      </trkpt>
      <trkpt lat="45.88202029466629" lon="7.988200150430203">
        <ele>1816.5483400000001</ele>
        <time>2011-06-19T06:37:16Z</time>
      </trkpt>
      <trkpt lat="45.881992718204856" lon="7.988139968365431">
        <ele>1817.5095209999999</ele>
        <time>2011-06-19T06:37:26Z</time>
      </trkpt>
      <trkpt lat="45.881962291896343" lon="7.988067464902997">
        <ele>1819.4323730000001</ele>
        <time>2011-06-19T06:37:35Z</time>
      </trkpt>
      <trkpt lat="45.88194158859551" lon="7.988016586750746">
        <ele>1820.3937989999999</ele>
        <time>2011-06-19T06:37:49Z</time>
      </trkpt>
      <trkpt lat="45.881938235834241" lon="7.987999487668276">
        <ele>1821.3549800000001</ele>
        <time>2011-06-19T06:37:59Z</time>
      </trkpt>
      <trkpt lat="45.881918119266629" lon="7.987954057753086">
        <ele>1822.3164059999999</ele>
        <time>2011-06-19T06:38:13Z</time>
      </trkpt>
      <trkpt lat="45.881977882236242" lon="7.987913154065609">
        <ele>1823.7583010000001</ele>
        <time>2011-06-19T06:38:25Z</time>
      </trkpt>
      <trkpt lat="45.8820491284132" lon="7.987891444936395">
        <ele>1825.680908</ele>
        <time>2011-06-19T06:38:37Z</time>
      </trkpt>
      <trkpt lat="45.882097743451595" lon="7.987837716937065">
        <ele>1827.123047</ele>
        <time>2011-06-19T06:38:45Z</time>
      </trkpt>
      <trkpt lat="45.882146526128054" lon="7.987781642004848">
        <ele>1827.6035159999999</ele>
        <time>2011-06-19T06:38:59Z</time>
      </trkpt>
      <trkpt lat="45.88220251724124" lon="7.987727243453264">
        <ele>1829.5261230000001</ele>
        <time>2011-06-19T06:39:09Z</time>
      </trkpt>
      <trkpt lat="45.882269069552422" lon="7.987653147429228">
        <ele>1830.9682620000001</ele>
        <time>2011-06-19T06:39:21Z</time>
      </trkpt>
      <trkpt lat="45.882281893864274" lon="7.987555833533406">
        <ele>1833.3713379999999</ele>
        <time>2011-06-19T06:39:33Z</time>
      </trkpt>
      <trkpt lat="45.88224845007062" lon="7.987435050308704">
        <ele>1835.2939449999999</ele>
        <time>2011-06-19T06:39:46Z</time>
      </trkpt>
      <trkpt lat="45.882243253290653" lon="7.987419124692679">
        <ele>1836.255615</ele>
        <time>2011-06-19T06:40:03Z</time>
      </trkpt>
      <trkpt lat="45.882216850295663" lon="7.987392721697688">
        <ele>1836.7360839999999</ele>
        <time>2011-06-19T06:40:23Z</time>
      </trkpt>
      <trkpt lat="45.882126996293664" lon="7.987293228507042">
        <ele>1838.658936</ele>
        <time>2011-06-19T06:40:37Z</time>
      </trkpt>
      <trkpt lat="45.88202222250402" lon="7.987173618748784">
        <ele>1841.0620120000001</ele>
        <time>2011-06-19T06:40:53Z</time>
      </trkpt>
      <trkpt lat="45.88194603100419" lon="7.9870639834553">
        <ele>1844.426514</ele>
        <time>2011-06-19T06:41:06Z</time>
      </trkpt>
      <trkpt lat="45.881949719041586" lon="7.98700287938118">
        <ele>1845.8686520000001</ele>
        <time>2011-06-19T06:41:17Z</time>
      </trkpt>
      <trkpt lat="45.882024737074971" lon="7.98692031763494">
        <ele>1847.310547</ele>
        <time>2011-06-19T06:41:30Z</time>
      </trkpt>
      <trkpt lat="45.882105873897672" lon="7.986852591857314">
        <ele>1849.7138669999999</ele>
        <time>2011-06-19T06:41:45Z</time>
      </trkpt>
      <trkpt lat="45.882119117304683" lon="7.986784698441625">
        <ele>1850.6750489999999</ele>
        <time>2011-06-19T06:42:04Z</time>
      </trkpt>
      <trkpt lat="45.882025994360447" lon="7.986717391759157">
        <ele>1852.1171879999999</ele>
        <time>2011-06-19T06:42:17Z</time>
      </trkpt>
      <trkpt lat="45.881972769275308" lon="7.986674895510078">
        <ele>1853.5593260000001</ele>
        <time>2011-06-19T06:42:26Z</time>
      </trkpt>
      <trkpt lat="45.882051223888993" lon="7.986584035679698">
        <ele>1855.001221</ele>
        <time>2011-06-19T06:42:39Z</time>
      </trkpt>
      <trkpt lat="45.882080644369125" lon="7.986563332378864">
        <ele>1856.443115</ele>
        <time>2011-06-19T06:42:50Z</time>
      </trkpt>
      <trkpt lat="45.88215951807797" lon="7.986520081758499">
        <ele>1857.4045410000001</ele>
        <time>2011-06-19T06:43:05Z</time>
      </trkpt>
      <trkpt lat="45.882234452292323" lon="7.986495355144143">
        <ele>1858.846436</ele>
        <time>2011-06-19T06:43:17Z</time>
      </trkpt>
      <trkpt lat="45.882280468940735" lon="7.986456546932459">
        <ele>1860.769043</ele>
        <time>2011-06-19T06:43:29Z</time>
      </trkpt>
      <trkpt lat="45.882206624373794" lon="7.986346576362848">
        <ele>1863.1723629999999</ele>
        <time>2011-06-19T06:43:44Z</time>
      </trkpt>
      <trkpt lat="45.88218055665493" lon="7.986302487552166">
        <ele>1863.652832</ele>
        <time>2011-06-19T06:43:58Z</time>
      </trkpt>
      <trkpt lat="45.88212045840919" lon="7.986213723197579">
        <ele>1865.5756839999999</ele>
        <time>2011-06-19T06:44:20Z</time>
      </trkpt>
      <trkpt lat="45.882029933854938" lon="7.98608279787004">
        <ele>1868.459717</ele>
        <time>2011-06-19T06:44:37Z</time>
      </trkpt>
      <trkpt lat="45.881937565281987" lon="7.98603686504066">
        <ele>1869.901611</ele>
        <time>2011-06-19T06:44:50Z</time>
      </trkpt>
      <trkpt lat="45.881883418187499" lon="7.985989591106772">
        <ele>1871.8242190000001</ele>
        <time>2011-06-19T06:45:00Z</time>
      </trkpt>
      <trkpt lat="45.881814770400524" lon="7.985887750983238">
        <ele>1873.266357</ele>
        <time>2011-06-19T06:45:13Z</time>
      </trkpt>
      <trkpt lat="45.881788954138756" lon="7.985864030197263">
        <ele>1873.7468260000001</ele>
        <time>2011-06-19T06:45:27Z</time>
      </trkpt>
      <trkpt lat="45.881760623306036" lon="7.985875932499766">
        <ele>1874.7082519999999</ele>
        <time>2011-06-19T06:45:36Z</time>
      </trkpt>
      <trkpt lat="45.881683258339763" lon="7.985872579738498">
        <ele>1875.188721</ele>
        <time>2011-06-19T06:45:47Z</time>
      </trkpt>
      <trkpt lat="45.881617376580834" lon="7.985864616930485">
        <ele>1876.6308590000001</ele>
        <time>2011-06-19T06:45:57Z</time>
      </trkpt>
      <trkpt lat="45.881625339388847" lon="7.985844248905778">
        <ele>1877.5920410000001</ele>
        <time>2011-06-19T06:46:00Z</time>
      </trkpt>
      <trkpt lat="45.881668673828244" lon="7.985748359933496">
        <ele>1879.033936</ele>
        <time>2011-06-19T06:46:12Z</time>
      </trkpt>
      <trkpt lat="45.881727430969477" lon="7.985653895884752">
        <ele>1880.9567870000001</ele>
        <time>2011-06-19T06:46:24Z</time>
      </trkpt>
      <trkpt lat="45.88171293027699" lon="7.985608885064721">
        <ele>1882.87915</ele>
        <time>2011-06-19T06:46:35Z</time>
      </trkpt>
      <trkpt lat="45.881613437086344" lon="7.985630258917809">
        <ele>1884.802246</ele>
        <time>2011-06-19T06:46:50Z</time>
      </trkpt>
      <trkpt lat="45.881639840081334" lon="7.985548535361886">
        <ele>1886.7246090000001</ele>
        <time>2011-06-19T06:47:00Z</time>
      </trkpt>
      <trkpt lat="45.881640259176493" lon="7.985534453764558">
        <ele>1886.2441409999999</ele>
        <time>2011-06-19T06:47:23Z</time>
      </trkpt>
      <trkpt lat="45.881654759868979" lon="7.985468236729503">
        <ele>1887.205322</ele>
        <time>2011-06-19T06:47:34Z</time>
      </trkpt>
      <trkpt lat="45.881652496755123" lon="7.985407887026668">
        <ele>1889.608643</ele>
        <time>2011-06-19T06:47:44Z</time>
      </trkpt>
      <trkpt lat="45.881577981635928" lon="7.985417358577251">
        <ele>1890.5698239999999</ele>
        <time>2011-06-19T06:47:56Z</time>
      </trkpt>
      <trkpt lat="45.881503550335765" lon="7.985447868704796">
        <ele>1892.4926760000001</ele>
        <time>2011-06-19T06:48:08Z</time>
      </trkpt>
      <trkpt lat="45.88138896971941" lon="7.985449377447367">
        <ele>1894.8957519999999</ele>
        <time>2011-06-19T06:48:24Z</time>
      </trkpt>
      <trkpt lat="45.881315544247627" lon="7.985429679974914">
        <ele>1896.3378909999999</ele>
        <time>2011-06-19T06:48:35Z</time>
      </trkpt>
      <trkpt lat="45.881244381889701" lon="7.985441833734512">
        <ele>1898.260254</ele>
        <time>2011-06-19T06:48:47Z</time>
      </trkpt>
      <trkpt lat="45.881184451282024" lon="7.985438732430339">
        <ele>1899.2216800000001</ele>
        <time>2011-06-19T06:48:57Z</time>
      </trkpt>
      <trkpt lat="45.881145978346467" lon="7.985460693016648">
        <ele>1900.663818</ele>
        <time>2011-06-19T06:49:12Z</time>
      </trkpt>
      <trkpt lat="45.881094848737121" lon="7.985471840947866">
        <ele>1902.5864260000001</ele>
        <time>2011-06-19T06:49:22Z</time>
      </trkpt>
      <trkpt lat="45.881076073274016" lon="7.985442839562893">
        <ele>1904.028564</ele>
        <time>2011-06-19T06:49:32Z</time>
      </trkpt>
      <trkpt lat="45.881157293915749" lon="7.985348962247372">
        <ele>1904.989746</ele>
        <time>2011-06-19T06:49:46Z</time>
      </trkpt>
      <trkpt lat="45.881189396604896" lon="7.985277129337192">
        <ele>1907.3930660000001</ele>
        <time>2011-06-19T06:49:55Z</time>
      </trkpt>
      <trkpt lat="45.881198281422257" lon="7.985243685543537">
        <ele>1907.873779</ele>
        <time>2011-06-19T06:50:12Z</time>
      </trkpt>
      <trkpt lat="45.881254523992538" lon="7.985149053856731">
        <ele>1909.796143</ele>
        <time>2011-06-19T06:50:35Z</time>
      </trkpt>
      <trkpt lat="45.88130883872509" lon="7.985077891498804">
        <ele>1911.2382809999999</ele>
        <time>2011-06-19T06:50:47Z</time>
      </trkpt>
      <trkpt lat="45.88135477155447" lon="7.985002370551229">
        <ele>1913.160889</ele>
        <time>2011-06-19T06:50:58Z</time>
      </trkpt>
      <trkpt lat="45.881412271410227" lon="7.984937494620681">
        <ele>1913.641357</ele>
        <time>2011-06-19T06:51:09Z</time>
      </trkpt>
      <trkpt lat="45.881414283066988" lon="7.984809251502156">
        <ele>1915.5642089999999</ele>
        <time>2011-06-19T06:51:21Z</time>
      </trkpt>
      <trkpt lat="45.881451079621911" lon="7.984727947041392">
        <ele>1916.525635</ele>
        <time>2011-06-19T06:51:32Z</time>
      </trkpt>
      <trkpt lat="45.881489720195532" lon="7.984660053625703">
        <ele>1918.4482419999999</ele>
        <time>2011-06-19T06:51:45Z</time>
      </trkpt>
      <trkpt lat="45.881506819278002" lon="7.984556537121534">
        <ele>1919.409668</ele>
        <time>2011-06-19T06:52:10Z</time>
      </trkpt>
      <trkpt lat="45.881559122353792" lon="7.984437933191657">
        <ele>1921.3320309999999</ele>
        <time>2011-06-19T06:52:23Z</time>
      </trkpt>
      <trkpt lat="45.881591225042939" lon="7.984334081411362">
        <ele>1923.7353519999999</ele>
        <time>2011-06-19T06:52:34Z</time>
      </trkpt>
      <trkpt lat="45.881631961092353" lon="7.9842215962708">
        <ele>1925.6579589999999</ele>
        <time>2011-06-19T06:52:46Z</time>
      </trkpt>
      <trkpt lat="45.881650736555457" lon="7.984166694805026">
        <ele>1926.138672</ele>
        <time>2011-06-19T06:53:00Z</time>
      </trkpt>
      <trkpt lat="45.881579741835594" lon="7.984197540208697">
        <ele>1926.619385</ele>
        <time>2011-06-19T06:53:31Z</time>
      </trkpt>
      <trkpt lat="45.881546465680003" lon="7.984229056164622">
        <ele>1927.1000979999999</ele>
        <time>2011-06-19T06:53:36Z</time>
      </trkpt>
      <trkpt lat="45.881430292502046" lon="7.984364172443748">
        <ele>1929.9838870000001</ele>
        <time>2011-06-19T06:53:53Z</time>
      </trkpt>
      <trkpt lat="45.881394417956471" lon="7.984403483569622">
        <ele>1930.9453129999999</ele>
        <time>2011-06-19T06:54:13Z</time>
      </trkpt>
      <trkpt lat="45.881295343860984" lon="7.984472885727882">
        <ele>1933.3486330000001</ele>
        <time>2011-06-19T06:54:26Z</time>
      </trkpt>
      <trkpt lat="45.881208255887032" lon="7.984511274844408">
        <ele>1935.751953</ele>
        <time>2011-06-19T06:54:38Z</time>
      </trkpt>
      <trkpt lat="45.881138853728771" lon="7.984537677839398">
        <ele>1937.674561</ele>
        <time>2011-06-19T06:54:50Z</time>
      </trkpt>
      <trkpt lat="45.881054364144802" lon="7.984618982300162">
        <ele>1939.597168</ele>
        <time>2011-06-19T06:55:03Z</time>
      </trkpt>
      <trkpt lat="45.880971886217594" lon="7.984703220427036">
        <ele>1942.0004879999999</ele>
        <time>2011-06-19T06:55:16Z</time>
      </trkpt>
      <trkpt lat="45.880909524857998" lon="7.984691737219691">
        <ele>1943.4423830000001</ele>
        <time>2011-06-19T06:55:26Z</time>
      </trkpt>
      <trkpt lat="45.880920756608248" lon="7.984670698642731">
        <ele>1943.923096</ele>
        <time>2011-06-19T06:55:36Z</time>
      </trkpt>
      <trkpt lat="45.880917152389884" lon="7.984667681157589">
        <ele>1944.8842770000001</ele>
        <time>2011-06-19T06:55:48Z</time>
      </trkpt>
      <trkpt lat="45.880925785750151" lon="7.984660221263766">
        <ele>1944.8842770000001</ele>
        <time>2011-06-19T06:55:53Z</time>
      </trkpt>
      <trkpt lat="45.880943136289716" lon="7.984644128009677">
        <ele>1944.403564</ele>
        <time>2011-06-19T06:56:04Z</time>
      </trkpt>
      <trkpt lat="45.881007425487041" lon="7.984545892104507">
        <ele>1945.36499</ele>
        <time>2011-06-19T06:56:16Z</time>
      </trkpt>
      <trkpt lat="45.881038019433618" lon="7.984394347295165">
        <ele>1948.2490230000001</ele>
        <time>2011-06-19T06:56:30Z</time>
      </trkpt>
      <trkpt lat="45.881039444357157" lon="7.984372135251761">
        <ele>1948.729736</ele>
        <time>2011-06-19T06:56:32Z</time>
      </trkpt>
      <trkpt lat="45.881106751039624" lon="7.984273228794336">
        <ele>1950.6523440000001</ele>
        <time>2011-06-19T06:56:44Z</time>
      </trkpt>
      <trkpt lat="45.881195683032274" lon="7.9841473326087">
        <ele>1952.5749510000001</ele>
        <time>2011-06-19T06:56:59Z</time>
      </trkpt>
      <trkpt lat="45.881229629740119" lon="7.984056388959289">
        <ele>1953.5363769999999</ele>
        <time>2011-06-19T06:57:12Z</time>
      </trkpt>
      <trkpt lat="45.881231976673007" lon="7.984006851911545">
        <ele>1954.0170900000001</ele>
        <time>2011-06-19T06:57:38Z</time>
      </trkpt>
      <trkpt lat="45.881170453503728" lon="7.984070973470807">
        <ele>1955.939453</ele>
        <time>2011-06-19T06:57:50Z</time>
      </trkpt>
      <trkpt lat="45.8810855448246" lon="7.984091928228736">
        <ele>1957.8623050000001</ele>
        <time>2011-06-19T06:58:02Z</time>
      </trkpt>
      <trkpt lat="45.880991164594889" lon="7.984106931835413">
        <ele>1960.7460940000001</ele>
        <time>2011-06-19T06:58:15Z</time>
      </trkpt>
      <trkpt lat="45.880914973095059" lon="7.984088659286499">
        <ele>1962.6687010000001</ele>
        <time>2011-06-19T06:58:26Z</time>
      </trkpt>
      <trkpt lat="45.880850935354829" lon="7.984096286818385">
        <ele>1964.1108400000001</ele>
        <time>2011-06-19T06:58:37Z</time>
      </trkpt>
      <trkpt lat="45.880818832665682" lon="7.984100226312876">
        <ele>1964.591553</ele>
        <time>2011-06-19T06:58:49Z</time>
      </trkpt>
      <trkpt lat="45.880832159891725" lon="7.984029399231076">
        <ele>1966.5141599999999</ele>
        <time>2011-06-19T06:59:08Z</time>
      </trkpt>
      <trkpt lat="45.880831237882376" lon="7.983910040929914">
        <ele>1968.436768</ele>
        <time>2011-06-19T06:59:20Z</time>
      </trkpt>
      <trkpt lat="45.880835596472025" lon="7.983784060925245">
        <ele>1970.8400879999999</ele>
        <time>2011-06-19T06:59:32Z</time>
      </trkpt>
      <trkpt lat="45.880841966718435" lon="7.983678532764316">
        <ele>1972.7626949999999</ele>
        <time>2011-06-19T06:59:44Z</time>
      </trkpt>
      <trkpt lat="45.880921091884375" lon="7.983700828626752">
        <ele>1974.685303</ele>
        <time>2011-06-19T06:59:55Z</time>
      </trkpt>
      <trkpt lat="45.881014466285706" lon="7.983731254935265">
        <ele>1976.127197</ele>
        <time>2011-06-19T07:00:08Z</time>
      </trkpt>
      <trkpt lat="45.881025698035955" lon="7.983721531927586">
        <ele>1977.0886230000001</ele>
        <time>2011-06-19T07:00:26Z</time>
      </trkpt>
      <trkpt lat="45.881034750491381" lon="7.983710132539272">
        <ele>1977.0886230000001</ele>
        <time>2011-06-19T07:01:05Z</time>
      </trkpt>
      <trkpt lat="45.880976831540465" lon="7.983645591884852">
        <ele>1978.0498050000001</ele>
        <time>2011-06-19T07:01:39Z</time>
      </trkpt>
      <trkpt lat="45.8809076808393" lon="7.983546182513237">
        <ele>1980.934082</ele>
        <time>2011-06-19T07:01:50Z</time>
      </trkpt>
      <trkpt lat="45.880844481289387" lon="7.983383825048804">
        <ele>1983.817871</ele>
        <time>2011-06-19T07:02:05Z</time>
      </trkpt>
      <trkpt lat="45.880783377215266" lon="7.983217192813754">
        <ele>1986.7016599999999</ele>
        <time>2011-06-19T07:02:21Z</time>
      </trkpt>
      <trkpt lat="45.880815396085382" lon="7.983223143965006">
        <ele>1986.7016599999999</ele>
        <time>2011-06-19T07:02:31Z</time>
      </trkpt>
      <trkpt lat="45.88087247684598" lon="7.983286259695888">
        <ele>1988.1437989999999</ele>
        <time>2011-06-19T07:02:53Z</time>
      </trkpt>
      <trkpt lat="45.880960570648313" lon="7.983326492831111">
        <ele>1991.0275879999999</ele>
        <time>2011-06-19T07:03:05Z</time>
      </trkpt>
      <trkpt lat="45.881014717742801" lon="7.983311740681529">
        <ele>1991.989014</ele>
        <time>2011-06-19T07:03:17Z</time>
      </trkpt>
      <trkpt lat="45.881042126566172" lon="7.983230017125607">
        <ele>1992.9501949999999</ele>
        <time>2011-06-19T07:03:43Z</time>
      </trkpt>
      <trkpt lat="45.881050676107407" lon="7.983162039890885">
        <ele>1994.3920900000001</ele>
        <time>2011-06-19T07:03:56Z</time>
      </trkpt>
      <trkpt lat="45.881058219820261" lon="7.98302692361176">
        <ele>1995.8342290000001</ele>
        <time>2011-06-19T07:04:57Z</time>
      </trkpt>
      <trkpt lat="45.881096357479692" lon="7.982907732948661">
        <ele>1998.7182620000001</ele>
        <time>2011-06-19T07:05:08Z</time>
      </trkpt>
      <trkpt lat="45.881161484867334" lon="7.982769766822457">
        <ele>2000.6408690000001</ele>
        <time>2011-06-19T07:05:22Z</time>
      </trkpt>
      <trkpt lat="45.881191324442625" lon="7.982716457918286">
        <ele>2001.121582</ele>
        <time>2011-06-19T07:05:36Z</time>
      </trkpt>
      <trkpt lat="45.881201466545463" lon="7.982684271410108">
        <ele>2001.121582</ele>
        <time>2011-06-19T07:05:52Z</time>
      </trkpt>
      <trkpt lat="45.881266258656979" lon="7.982577653601766">
        <ele>2003.044189</ele>
        <time>2011-06-19T07:06:08Z</time>
      </trkpt>
      <trkpt lat="45.881214626133442" lon="7.982594165951014">
        <ele>2004.005615</ele>
        <time>2011-06-19T07:06:19Z</time>
      </trkpt>
      <trkpt lat="45.881112869828939" lon="7.982577150687575">
        <ele>2007.3701169999999</ele>
        <time>2011-06-19T07:06:32Z</time>
      </trkpt>
      <trkpt lat="45.881008682772517" lon="7.98257983289659">
        <ele>2009.292725</ele>
        <time>2011-06-19T07:06:46Z</time>
      </trkpt>
      <trkpt lat="45.880935257300735" lon="7.982578324154019">
        <ele>2011.215332</ele>
        <time>2011-06-19T07:06:57Z</time>
      </trkpt>
      <trkpt lat="45.880911033600569" lon="7.98253582790494">
        <ele>2012.1767580000001</ele>
        <time>2011-06-19T07:07:07Z</time>
      </trkpt>
      <trkpt lat="45.880908770486712" lon="7.982529792934656">
        <ele>2012.657471</ele>
        <time>2011-06-19T07:07:37Z</time>
      </trkpt>
      <trkpt lat="45.880847163498402" lon="7.982477070763707">
        <ele>2014.099365</ele>
        <time>2011-06-19T07:07:49Z</time>
      </trkpt>
      <trkpt lat="45.880797961726785" lon="7.982372883707285">
        <ele>2016.0219729999999</ele>
        <time>2011-06-19T07:08:00Z</time>
      </trkpt>
      <trkpt lat="45.880755549296737" lon="7.982218656688929">
        <ele>2018.425293</ele>
        <time>2011-06-19T07:08:15Z</time>
      </trkpt>
      <trkpt lat="45.880744066089392" lon="7.98216157592833">
        <ele>2019.8671879999999</ele>
        <time>2011-06-19T07:08:25Z</time>
      </trkpt>
      <trkpt lat="45.880820257589221" lon="7.982219997793436">
        <ele>2021.309082</ele>
        <time>2011-06-19T07:08:36Z</time>
      </trkpt>
      <trkpt lat="45.8808299805969" lon="7.982183117419481">
        <ele>2022.751221</ele>
        <time>2011-06-19T07:08:46Z</time>
      </trkpt>
      <trkpt lat="45.880803661420941" lon="7.982093766331673">
        <ele>2023.7124020000001</ele>
        <time>2011-06-19T07:09:03Z</time>
      </trkpt>
      <trkpt lat="45.880779689177871" lon="7.981985555961728">
        <ele>2025.63501</ele>
        <time>2011-06-19T07:09:14Z</time>
      </trkpt>
      <trkpt lat="45.880744233727455" lon="7.981863850727677">
        <ele>2027.5576169999999</ele>
        <time>2011-06-19T07:09:26Z</time>
      </trkpt>
      <trkpt lat="45.880704922601581" lon="7.981773829087615">
        <ele>2029.4804690000001</ele>
        <time>2011-06-19T07:09:37Z</time>
      </trkpt>
      <trkpt lat="45.880653290078044" lon="7.981680873781443">
        <ele>2031.4030760000001</ele>
        <time>2011-06-19T07:09:50Z</time>
      </trkpt>
      <trkpt lat="45.880606435239315" lon="7.981575764715672">
        <ele>2032.844971</ele>
        <time>2011-06-19T07:10:15Z</time>
      </trkpt>
      <trkpt lat="45.880636693909764" lon="7.981580458581448">
        <ele>2033.3256839999999</ele>
        <time>2011-06-19T07:10:20Z</time>
      </trkpt>
      <trkpt lat="45.880667874589562" lon="7.981574926525354">
        <ele>2034.767822</ele>
        <time>2011-06-19T07:10:31Z</time>
      </trkpt>
      <trkpt lat="45.880639543756843" lon="7.981453891843557">
        <ele>2037.651611</ele>
        <time>2011-06-19T07:10:44Z</time>
      </trkpt>
      <trkpt lat="45.880593191832304" lon="7.981354650110006">
        <ele>2039.0935059999999</ele>
        <time>2011-06-19T07:10:56Z</time>
      </trkpt>
      <trkpt lat="45.880577182397246" lon="7.98128055408597">
        <ele>2040.5354</ele>
        <time>2011-06-19T07:11:09Z</time>
      </trkpt>
      <trkpt lat="45.880639879032969" lon="7.981253480538726">
        <ele>2041.977539</ele>
        <time>2011-06-19T07:11:20Z</time>
      </trkpt>
      <trkpt lat="45.880657397210598" lon="7.981206960976124">
        <ele>2043.9001459999999</ele>
        <time>2011-06-19T07:11:31Z</time>
      </trkpt>
      <trkpt lat="45.880648260936141" lon="7.98116521909833">
        <ele>2044.3808590000001</ele>
        <time>2011-06-19T07:11:46Z</time>
      </trkpt>
      <trkpt lat="45.880666365846992" lon="7.981065725907683">
        <ele>2045.8229980000001</ele>
        <time>2011-06-19T07:12:05Z</time>
      </trkpt>
      <trkpt lat="45.880755884572864" lon="7.980969753116369">
        <ele>2047.264893</ele>
        <time>2011-06-19T07:12:20Z</time>
      </trkpt>
      <trkpt lat="45.880756638944149" lon="7.980914348736405">
        <ele>2047.7456050000001</ele>
        <time>2011-06-19T07:12:35Z</time>
      </trkpt>
      <trkpt lat="45.880765775218606" lon="7.980898590758443">
        <ele>2047.7456050000001</ele>
        <time>2011-06-19T07:13:06Z</time>
      </trkpt>
      <trkpt lat="45.880795363336802" lon="7.980782249942422">
        <ele>2049.6682129999999</ele>
        <time>2011-06-19T07:14:11Z</time>
      </trkpt>
      <trkpt lat="45.880864933133125" lon="7.980663478374481">
        <ele>2051.110107</ele>
        <time>2011-06-19T07:14:25Z</time>
      </trkpt>
      <trkpt lat="45.880884295329452" lon="7.980641685426235">
        <ele>2052.071289</ele>
        <time>2011-06-19T07:14:37Z</time>
      </trkpt>
      <trkpt lat="45.880955122411251" lon="7.980604637414217">
        <ele>2053.0327149999998</ele>
        <time>2011-06-19T07:15:13Z</time>
      </trkpt>
      <trkpt lat="45.881021842360497" lon="7.980568846687675">
        <ele>2055.4360350000002</ele>
        <time>2011-06-19T07:15:24Z</time>
      </trkpt>
      <trkpt lat="45.881144469603896" lon="7.980591645464301">
        <ele>2057.358643</ele>
        <time>2011-06-19T07:15:38Z</time>
      </trkpt>
      <trkpt lat="45.881157293915749" lon="7.980589047074318">
        <ele>2058.3198240000002</ele>
        <time>2011-06-19T07:15:55Z</time>
      </trkpt>
      <trkpt lat="45.881162574514747" lon="7.980566835030913">
        <ele>2059.28125</ele>
        <time>2011-06-19T07:16:14Z</time>
      </trkpt>
      <trkpt lat="45.881116474047303" lon="7.980426689609885">
        <ele>2061.6848140000002</ele>
        <time>2011-06-19T07:16:27Z</time>
      </trkpt>
      <trkpt lat="45.8810527715832" lon="7.980255279690027">
        <ele>2063.6071780000002</ele>
        <time>2011-06-19T07:16:43Z</time>
      </trkpt>
      <trkpt lat="45.881013795733452" lon="7.980095352977514">
        <ele>2066.491211</ele>
        <time>2011-06-19T07:16:57Z</time>
      </trkpt>
      <trkpt lat="45.880942884832621" lon="7.980019496753812">
        <ele>2068.413818</ele>
        <time>2011-06-19T07:17:09Z</time>
      </trkpt>
      <trkpt lat="45.880882451310754" lon="7.979981191456318">
        <ele>2069.8557129999999</ele>
        <time>2011-06-19T07:17:20Z</time>
      </trkpt>
      <trkpt lat="45.880879266187549" lon="7.979989489540458">
        <ele>2070.3364259999998</ele>
        <time>2011-06-19T07:18:02Z</time>
      </trkpt>
      <trkpt lat="45.880904160439968" lon="7.979949675500393">
        <ele>2070.8171390000002</ele>
        <time>2011-06-19T07:19:19Z</time>
      </trkpt>
      <trkpt lat="45.880905920639634" lon="7.979934839531779">
        <ele>2071.7783199999999</ele>
        <time>2011-06-19T07:19:30Z</time>
      </trkpt>
      <trkpt lat="45.880892761051655" lon="7.97992754727602">
        <ele>2072.2590329999998</ele>
        <time>2011-06-19T07:32:20Z</time>
      </trkpt>
      <trkpt lat="45.880892593413591" lon="7.979931235313416">
        <ele>2072.7397460000002</ele>
        <time>2011-06-19T07:32:26Z</time>
      </trkpt>
      <trkpt lat="45.880867531523108" lon="7.97986107878387">
        <ele>2074.1816410000001</ele>
        <time>2011-06-19T07:32:41Z</time>
      </trkpt>
      <trkpt lat="45.880816485732794" lon="7.979742223396897">
        <ele>2076.5852049999999</ele>
        <time>2011-06-19T07:32:54Z</time>
      </trkpt>
      <trkpt lat="45.880731577053666" lon="7.979625128209591">
        <ele>2079.4689939999998</ele>
        <time>2011-06-19T07:33:08Z</time>
      </trkpt>
      <trkpt lat="45.880722356960177" lon="7.979587074369192">
        <ele>2079.9497070000002</ele>
        <time>2011-06-19T07:33:20Z</time>
      </trkpt>
      <trkpt lat="45.880707688629627" lon="7.979586571455002">
        <ele>2079.4689939999998</ele>
        <time>2011-06-19T07:33:39Z</time>
      </trkpt>
      <trkpt lat="45.880644740536809" lon="7.979522785171866">
        <ele>2081.8723140000002</ele>
        <time>2011-06-19T07:33:50Z</time>
      </trkpt>
      <trkpt lat="45.880569471046329" lon="7.979430919513106">
        <ele>2083.3142090000001</ele>
        <time>2011-06-19T07:34:03Z</time>
      </trkpt>
      <trkpt lat="45.880523957312107" lon="7.979343999177218">
        <ele>2086.1982419999999</ele>
        <time>2011-06-19T07:34:15Z</time>
      </trkpt>
      <trkpt lat="45.880569387227297" lon="7.979320026934147">
        <ele>2087.6401369999999</ele>
        <time>2011-06-19T07:34:24Z</time>
      </trkpt>
      <trkpt lat="45.880659073591232" lon="7.979229753836989">
        <ele>2090.0434570000002</ele>
        <time>2011-06-19T07:34:40Z</time>
      </trkpt>
      <trkpt lat="45.880667958408594" lon="7.979106875136495">
        <ele>2092.4470209999999</ele>
        <time>2011-06-19T07:34:53Z</time>
      </trkpt>
      <trkpt lat="45.88062034919858" lon="7.979113748297095">
        <ele>2093.8889159999999</ele>
        <time>2011-06-19T07:35:02Z</time>
      </trkpt>
      <trkpt lat="45.880565196275711" lon="7.979048620909452">
        <ele>2095.3308109999998</ele>
        <time>2011-06-19T07:35:22Z</time>
      </trkpt>
      <trkpt lat="45.880485149100423" lon="7.979003777727485">
        <ele>2097.7341310000002</ele>
        <time>2011-06-19T07:35:35Z</time>
      </trkpt>
      <trkpt lat="45.88053678162396" lon="7.978899423032999">
        <ele>2099.6567380000001</ele>
        <time>2011-06-19T07:35:48Z</time>
      </trkpt>
      <trkpt lat="45.880599981173873" lon="7.978821638971567">
        <ele>2102.5405270000001</ele>
        <time>2011-06-19T07:36:01Z</time>
      </trkpt>
      <trkpt lat="45.880550527945161" lon="7.97879783436656">
        <ele>2103.02124</ele>
        <time>2011-06-19T07:36:18Z</time>
      </trkpt>
      <trkpt lat="45.880482634529471" lon="7.978739496320486">
        <ele>2104.463135</ele>
        <time>2011-06-19T07:36:28Z</time>
      </trkpt>
      <trkpt lat="45.880407532677054" lon="7.978712422773242">
        <ele>2107.3471679999998</ele>
        <time>2011-06-19T07:36:40Z</time>
      </trkpt>
      <trkpt lat="45.880361264571548" lon="7.978606140241027">
        <ele>2109.2700199999999</ele>
        <time>2011-06-19T07:36:52Z</time>
      </trkpt>
      <trkpt lat="45.880321199074388" lon="7.978472365066409">
        <ele>2111.1926269999999</ele>
        <time>2011-06-19T07:37:06Z</time>
      </trkpt>
      <trkpt lat="45.880301417782903" lon="7.978411177173257">
        <ele>2112.1538089999999</ele>
        <time>2011-06-19T07:37:19Z</time>
      </trkpt>
      <trkpt lat="45.880262861028314" lon="7.978250999003649">
        <ele>2115.5185550000001</ele>
        <time>2011-06-19T07:37:35Z</time>
      </trkpt>
      <trkpt lat="45.880222963169217" lon="7.978109763935208">
        <ele>2117.9216310000002</ele>
        <time>2011-06-19T07:37:49Z</time>
      </trkpt>
      <trkpt lat="45.880179293453693" lon="7.97798722051084">
        <ele>2120.3249510000001</ele>
        <time>2011-06-19T07:38:02Z</time>
      </trkpt>
      <trkpt lat="45.880157249048352" lon="7.977887392044067">
        <ele>2122.2475589999999</ele>
        <time>2011-06-19T07:38:13Z</time>
      </trkpt>
      <trkpt lat="45.880142999812961" lon="7.977806674316526">
        <ele>2123.689453</ele>
        <time>2011-06-19T07:38:25Z</time>
      </trkpt>
      <trkpt lat="45.880122380331159" lon="7.97770818695426">
        <ele>2125.1315920000002</ele>
        <time>2011-06-19T07:38:42Z</time>
      </trkpt>
      <trkpt lat="45.880106454715133" lon="7.977542728185654">
        <ele>2127.054443</ele>
        <time>2011-06-19T07:38:57Z</time>
      </trkpt>
      <trkpt lat="45.880083320662379" lon="7.977370396256447">
        <ele>2129.4575199999999</ele>
        <time>2011-06-19T07:39:12Z</time>
      </trkpt>
      <trkpt lat="45.880066053941846" lon="7.977239051833749">
        <ele>2131.3801269999999</ele>
        <time>2011-06-19T07:39:25Z</time>
      </trkpt>
      <trkpt lat="45.8800701610744" lon="7.977111479267478">
        <ele>2132.3415530000002</ele>
        <time>2011-06-19T07:39:37Z</time>
      </trkpt>
      <trkpt lat="45.880084494128823" lon="7.977033443748951">
        <ele>2133.7834469999998</ele>
        <time>2011-06-19T07:39:53Z</time>
      </trkpt>
      <trkpt lat="45.880080554634333" lon="7.976838061586022">
        <ele>2134.7448730000001</ele>
        <time>2011-06-19T07:40:08Z</time>
      </trkpt>
      <trkpt lat="45.88005892932415" lon="7.976667238399386">
        <ele>2137.6286620000001</ele>
        <time>2011-06-19T07:40:23Z</time>
      </trkpt>
      <trkpt lat="45.880029425024986" lon="7.976539582014084">
        <ele>2139.070557</ele>
        <time>2011-06-19T07:40:35Z</time>
      </trkpt>
      <trkpt lat="45.879978127777576" lon="7.976389043033123">
        <ele>2141.4741210000002</ele>
        <time>2011-06-19T07:40:50Z</time>
      </trkpt>
      <trkpt lat="45.879897493869066" lon="7.97628284431994">
        <ele>2143.8774410000001</ele>
        <time>2011-06-19T07:41:04Z</time>
      </trkpt>
      <trkpt lat="45.879834126681089" lon="7.976181926205754">
        <ele>2146.2807619999999</ele>
        <time>2011-06-19T07:41:18Z</time>
      </trkpt>
      <trkpt lat="45.879798335954547" lon="7.976065669208765">
        <ele>2147.241943</ele>
        <time>2011-06-19T07:41:41Z</time>
      </trkpt>
      <trkpt lat="45.879763886332512" lon="7.975896019488573">
        <ele>2149.1645509999998</ele>
        <time>2011-06-19T07:41:56Z</time>
      </trkpt>
      <trkpt lat="45.879726083949208" lon="7.975723268464208">
        <ele>2150.6064449999999</ele>
        <time>2011-06-19T07:42:11Z</time>
      </trkpt>
      <trkpt lat="45.879703033715487" lon="7.975558983162046">
        <ele>2152.5290530000002</ele>
        <time>2011-06-19T07:42:26Z</time>
      </trkpt>
      <trkpt lat="45.879684677347541" lon="7.97542286105454">
        <ele>2154.4516600000002</ele>
        <time>2011-06-19T07:42:38Z</time>
      </trkpt>
      <trkpt lat="45.879685431718826" lon="7.975384891033173">
        <ele>2155.413086</ele>
        <time>2011-06-19T07:42:50Z</time>
      </trkpt>
      <trkpt lat="45.879664896056056" lon="7.975254720076919">
        <ele>2156.3745119999999</ele>
        <time>2011-06-19T07:43:04Z</time>
      </trkpt>
      <trkpt lat="45.879653496667743" lon="7.975110048428178">
        <ele>2157.8166500000002</ele>
        <time>2011-06-19T07:43:17Z</time>
      </trkpt>
      <trkpt lat="45.87962256744504" lon="7.974907457828522">
        <ele>2160.2197270000001</ele>
        <time>2011-06-19T07:43:33Z</time>
      </trkpt>
      <trkpt lat="45.879591219127178" lon="7.974745854735375">
        <ele>2162.623047</ele>
        <time>2011-06-19T07:43:46Z</time>
      </trkpt>
      <trkpt lat="45.879579316824675" lon="7.974670249968767">
        <ele>2163.10376</ele>
        <time>2011-06-19T07:44:00Z</time>
      </trkpt>
      <trkpt lat="45.879526594653726" lon="7.974568661302328">
        <ele>2164.545654</ele>
        <time>2011-06-19T07:44:43Z</time>
      </trkpt>
      <trkpt lat="45.879510417580605" lon="7.974425833672285">
        <ele>2166.4682619999999</ele>
        <time>2011-06-19T07:44:55Z</time>
      </trkpt>
      <trkpt lat="45.879506645724177" lon="7.974413763731718">
        <ele>2165.9875489999999</ele>
        <time>2011-06-19T07:44:56Z</time>
      </trkpt>
      <trkpt lat="45.879489798098803" lon="7.974318377673626">
        <ele>2166.9489749999998</ele>
        <time>2011-06-19T07:45:09Z</time>
      </trkpt>
      <trkpt lat="45.879470352083445" lon="7.97418761998415">
        <ele>2168.8715820000002</ele>
        <time>2011-06-19T07:45:28Z</time>
      </trkpt>
      <trkpt lat="45.879413774237037" lon="7.974026687443256">
        <ele>2170.3134770000001</ele>
        <time>2011-06-19T07:45:42Z</time>
      </trkpt>
      <trkpt lat="45.879363398998976" lon="7.973895343020558">
        <ele>2171.7553710000002</ele>
        <time>2011-06-19T07:45:54Z</time>
      </trkpt>
      <trkpt lat="45.879347641021013" lon="7.973750168457627">
        <ele>2174.1589359999998</ele>
        <time>2011-06-19T07:46:08Z</time>
      </trkpt>
      <trkpt lat="45.879337918013334" lon="7.97359979711473">
        <ele>2175.6008299999999</ele>
        <time>2011-06-19T07:46:21Z</time>
      </trkpt>
      <trkpt lat="45.879281088709831" lon="7.973468536511064">
        <ele>2177.0429690000001</ele>
        <time>2011-06-19T07:46:35Z</time>
      </trkpt>
      <trkpt lat="45.879273377358913" lon="7.973433835431933">
        <ele>2178.4848630000001</ele>
        <time>2011-06-19T07:46:48Z</time>
      </trkpt>
      <trkpt lat="45.879260469228029" lon="7.973328726366162">
        <ele>2179.9267580000001</ele>
        <time>2011-06-19T07:47:03Z</time>
      </trkpt>
      <trkpt lat="45.879242364317179" lon="7.973187742754817">
        <ele>2181.849365</ele>
        <time>2011-06-19T07:47:16Z</time>
      </trkpt>
      <trkpt lat="45.879237586632371" lon="7.973118340596557">
        <ele>2182.330078</ele>
        <time>2011-06-19T07:47:21Z</time>
      </trkpt>
      <trkpt lat="45.879240771755576" lon="7.972968388348818">
        <ele>2183.7719729999999</ele>
        <time>2011-06-19T07:47:33Z</time>
      </trkpt>
      <trkpt lat="45.879232725128531" lon="7.972847688943148">
        <ele>2186.1752929999998</ele>
        <time>2011-06-19T07:47:44Z</time>
      </trkpt>
      <trkpt lat="45.879205651581287" lon="7.972732437774539">
        <ele>2186.6557619999999</ele>
        <time>2011-06-19T07:47:56Z</time>
      </trkpt>
      <trkpt lat="45.879135159775615" lon="7.972670830786228">
        <ele>2188.0981449999999</ele>
        <time>2011-06-19T07:48:07Z</time>
      </trkpt>
      <trkpt lat="45.879094339907169" lon="7.972563877701759">
        <ele>2190.501221</ele>
        <time>2011-06-19T07:48:21Z</time>
      </trkpt>
      <trkpt lat="45.879049580544233" lon="7.972478298470378">
        <ele>2190.9819339999999</ele>
        <time>2011-06-19T07:48:38Z</time>
      </trkpt>
      <trkpt lat="45.878981687128544" lon="7.972351647913456">
        <ele>2192.9045409999999</ele>
        <time>2011-06-19T07:48:52Z</time>
      </trkpt>
      <trkpt lat="45.878950590267777" lon="7.9722301941365">
        <ele>2194.3464359999998</ele>
        <time>2011-06-19T07:49:03Z</time>
      </trkpt>
      <trkpt lat="45.878925193101168" lon="7.972063478082418">
        <ele>2195.7885740000002</ele>
        <time>2011-06-19T07:49:17Z</time>
      </trkpt>
      <trkpt lat="45.878922343254089" lon="7.97203715890646">
        <ele>2196.2692870000001</ele>
        <time>2011-06-19T07:49:32Z</time>
      </trkpt>
      <trkpt lat="45.878891162574291" lon="7.971925092861056">
        <ele>2197.711182</ele>
        <time>2011-06-19T07:49:55Z</time>
      </trkpt>
      <trkpt lat="45.878854198381305" lon="7.971796933561564">
        <ele>2199.633789</ele>
        <time>2011-06-19T07:50:07Z</time>
      </trkpt>
      <trkpt lat="45.878865765407681" lon="7.97167262993753">
        <ele>2201.5563959999999</ele>
        <time>2011-06-19T07:50:19Z</time>
      </trkpt>
      <trkpt lat="45.878862580284476" lon="7.97154706902802">
        <ele>2203.4790039999998</ele>
        <time>2011-06-19T07:50:31Z</time>
      </trkpt>
      <trkpt lat="45.878905998542905" lon="7.971507087349892">
        <ele>2204.921143</ele>
        <time>2011-06-19T07:50:40Z</time>
      </trkpt>
      <trkpt lat="45.879007671028376" lon="7.971564838662744">
        <ele>2207.8051759999998</ele>
        <time>2011-06-19T07:50:55Z</time>
      </trkpt>
      <trkpt lat="45.879023093730211" lon="7.971566263586283">
        <ele>2208.2856449999999</ele>
        <time>2011-06-19T07:51:13Z</time>
      </trkpt>
      <trkpt lat="45.878997277468443" lon="7.971480516716838">
        <ele>2210.2082519999999</ele>
        <time>2011-06-19T07:51:24Z</time>
      </trkpt>
      <trkpt lat="45.878971964120865" lon="7.971390662714839">
        <ele>2211.6503910000001</ele>
        <time>2011-06-19T07:51:34Z</time>
      </trkpt>
      <trkpt lat="45.878963666036725" lon="7.971352944150567">
        <ele>2213.0922850000002</ele>
        <time>2011-06-19T07:51:50Z</time>
      </trkpt>
      <trkpt lat="45.879039773717523" lon="7.971372222527862">
        <ele>2214.5341800000001</ele>
        <time>2011-06-19T07:52:09Z</time>
      </trkpt>
      <trkpt lat="45.879113199189305" lon="7.971396949142218">
        <ele>2215.4956050000001</ele>
        <time>2011-06-19T07:52:20Z</time>
      </trkpt>
      <trkpt lat="45.879119653254747" lon="7.97135797329247">
        <ele>2216.9375</ele>
        <time>2011-06-19T07:52:31Z</time>
      </trkpt>
      <trkpt lat="45.879088137298822" lon="7.971257893368602">
        <ele>2219.821289</ele>
        <time>2011-06-19T07:52:42Z</time>
      </trkpt>
      <trkpt lat="45.879120156168938" lon="7.971231238916516">
        <ele>2219.821289</ele>
        <time>2011-06-19T07:53:15Z</time>
      </trkpt>
      <trkpt lat="45.879068523645401" lon="7.971157226711512">
        <ele>2221.2634280000002</ele>
        <time>2011-06-19T07:53:50Z</time>
      </trkpt>
      <trkpt lat="45.879079420119524" lon="7.971107438206673">
        <ele>2222.7055660000001</ele>
        <time>2011-06-19T07:53:59Z</time>
      </trkpt>
      <trkpt lat="45.879210345447063" lon="7.971203830093145">
        <ele>2225.108643</ele>
        <time>2011-06-19T07:54:15Z</time>
      </trkpt>
      <trkpt lat="45.879217721521854" lon="7.971157059073448">
        <ele>2226.5507809999999</ele>
        <time>2011-06-19T07:54:25Z</time>
      </trkpt>
      <trkpt lat="45.879185032099485" lon="7.971055638045073">
        <ele>2227.9926759999998</ele>
        <time>2011-06-19T07:54:35Z</time>
      </trkpt>
      <trkpt lat="45.879160137847066" lon="7.970923455432057">
        <ele>2229.9152829999998</ele>
        <time>2011-06-19T07:54:47Z</time>
      </trkpt>
      <trkpt lat="45.87911588139832" lon="7.970823124051094">
        <ele>2231.8378910000001</ele>
        <time>2011-06-19T07:54:58Z</time>
      </trkpt>
      <trkpt lat="45.879117893055081" lon="7.970792194828391">
        <ele>2232.3186040000001</ele>
        <time>2011-06-19T07:55:11Z</time>
      </trkpt>
      <trkpt lat="45.879114372655749" lon="7.970705945044756">
        <ele>2233.2797850000002</ele>
        <time>2011-06-19T07:55:30Z</time>
      </trkpt>
      <trkpt lat="45.879102051258087" lon="7.970541827380657">
        <ele>2235.6831050000001</ele>
        <time>2011-06-19T07:55:44Z</time>
      </trkpt>
      <trkpt lat="45.87907237932086" lon="7.970444262027741">
        <ele>2236.6445309999999</ele>
        <time>2011-06-19T07:55:54Z</time>
      </trkpt>
      <trkpt lat="45.879044886678457" lon="7.970324819907546">
        <ele>2239.0478520000001</ele>
        <time>2011-06-19T07:56:06Z</time>
      </trkpt>
      <trkpt lat="45.87910464964807" lon="7.970372764393687">
        <ele>2240.0092770000001</ele>
        <time>2011-06-19T07:56:15Z</time>
      </trkpt>
      <trkpt lat="45.879195090383291" lon="7.97047695145011">
        <ele>2242.4125979999999</ele>
        <time>2011-06-19T07:56:29Z</time>
      </trkpt>
      <trkpt lat="45.879257367923856" lon="7.970574349164963">
        <ele>2243.373779</ele>
        <time>2011-06-19T07:56:41Z</time>
      </trkpt>
      <trkpt lat="45.879323249682784" lon="7.97063821926713">
        <ele>2245.7770999999998</ele>
        <time>2011-06-19T07:56:54Z</time>
      </trkpt>
      <trkpt lat="45.879318974912167" lon="7.970529086887837">
        <ele>2246.7382809999999</ele>
        <time>2011-06-19T07:57:15Z</time>
      </trkpt>
      <trkpt lat="45.879277233034372" lon="7.970362789928913">
        <ele>2249.6223140000002</ele>
        <time>2011-06-19T07:57:31Z</time>
      </trkpt>
      <trkpt lat="45.879241023212671" lon="7.97020772472024">
        <ele>2252.025635</ele>
        <time>2011-06-19T07:57:47Z</time>
      </trkpt>
      <trkpt lat="45.879238089546561" lon="7.970167743042111">
        <ele>2252.5063479999999</ele>
        <time>2011-06-19T07:58:04Z</time>
      </trkpt>
      <trkpt lat="45.879222499206662" lon="7.97003279440105">
        <ele>2254.9096679999998</ele>
        <time>2011-06-19T07:58:29Z</time>
      </trkpt>
      <trkpt lat="45.87917204014957" lon="7.969924248754978">
        <ele>2256.8322750000002</ele>
        <time>2011-06-19T07:58:41Z</time>
      </trkpt>
      <trkpt lat="45.879168519750237" lon="7.969793239608407">
        <ele>2259.235596</ele>
        <time>2011-06-19T07:58:56Z</time>
      </trkpt>
      <trkpt lat="45.87920238263905" lon="7.969862055033445">
        <ele>2260.1967770000001</ele>
        <time>2011-06-19T07:59:09Z</time>
      </trkpt>
      <trkpt lat="45.879276981577277" lon="7.969910083338618">
        <ele>2262.119385</ele>
        <time>2011-06-19T07:59:29Z</time>
      </trkpt>
      <trkpt lat="45.87936507537961" lon="7.970006475225091">
        <ele>2263.561279</ele>
        <time>2011-06-19T07:59:42Z</time>
      </trkpt>
      <trkpt lat="45.87948334403336" lon="7.970084762200713">
        <ele>2265.0034179999998</ele>
        <time>2011-06-19T07:59:57Z</time>
      </trkpt>
      <trkpt lat="45.879510333761573" lon="7.970044780522585">
        <ele>2266.9260250000002</ele>
        <time>2011-06-19T08:00:09Z</time>
      </trkpt>
      <trkpt lat="45.879475548863411" lon="7.969888625666499">
        <ele>2269.3295899999998</ele>
        <time>2011-06-19T08:00:24Z</time>
      </trkpt>
      <trkpt lat="45.879463395103812" lon="7.969871778041124">
        <ele>2269.8100589999999</ele>
        <time>2011-06-19T08:00:45Z</time>
      </trkpt>
      <trkpt lat="45.879429364576936" lon="7.96976163983345">
        <ele>2272.2133789999998</ele>
        <time>2011-06-19T08:00:59Z</time>
      </trkpt>
      <trkpt lat="45.879382593557239" lon="7.969621075317264">
        <ele>2274.1359859999998</ele>
        <time>2011-06-19T08:01:13Z</time>
      </trkpt>
      <trkpt lat="45.879369433969259" lon="7.969449833035469">
        <ele>2277.0200199999999</ele>
        <time>2011-06-19T08:01:28Z</time>
      </trkpt>
      <trkpt lat="45.879343952983618" lon="7.96929887495935">
        <ele>2279.423096</ele>
        <time>2011-06-19T08:01:42Z</time>
      </trkpt>
      <trkpt lat="45.879335068166256" lon="7.969224276021123">
        <ele>2280.3845209999999</ele>
        <time>2011-06-19T08:01:55Z</time>
      </trkpt>
      <trkpt lat="45.879332218319178" lon="7.969148671254516">
        <ele>2282.7875979999999</ele>
        <time>2011-06-19T08:02:16Z</time>
      </trkpt>
      <trkpt lat="45.879319058731198" lon="7.969089997932315">
        <ele>2283.7490229999999</ele>
        <time>2011-06-19T08:02:22Z</time>
      </trkpt>
      <trkpt lat="45.879286536946893" lon="7.968893945217133">
        <ele>2286.633057</ele>
        <time>2011-06-19T08:02:38Z</time>
      </trkpt>
      <trkpt lat="45.879252925515175" lon="7.9687540512532">
        <ele>2288.0751949999999</ele>
        <time>2011-06-19T08:02:51Z</time>
      </trkpt>
      <trkpt lat="45.879242951050401" lon="7.96861725859344">
        <ele>2290.9589839999999</ele>
        <time>2011-06-19T08:03:04Z</time>
      </trkpt>
      <trkpt lat="45.879236245527864" lon="7.968578450381756">
        <ele>2291.4396969999998</ele>
        <time>2011-06-19T08:03:16Z</time>
      </trkpt>
      <trkpt lat="45.879231048747897" lon="7.968473173677921">
        <ele>2293.3623050000001</ele>
        <time>2011-06-19T08:03:36Z</time>
      </trkpt>
      <trkpt lat="45.879230462014675" lon="7.968379631638527">
        <ele>2294.8041990000002</ele>
        <time>2011-06-19T08:03:46Z</time>
      </trkpt>
      <trkpt lat="45.879225768148899" lon="7.968232361599803">
        <ele>2298.1687010000001</ele>
        <time>2011-06-19T08:04:01Z</time>
      </trkpt>
      <trkpt lat="45.879200119525194" lon="7.968118116259575">
        <ele>2300.091797</ele>
        <time>2011-06-19T08:04:13Z</time>
      </trkpt>
      <trkpt lat="45.879165753722191" lon="7.968021640554071">
        <ele>2301.5336910000001</ele>
        <time>2011-06-19T08:04:25Z</time>
      </trkpt>
      <trkpt lat="45.879154019057751" lon="7.967990543693304">
        <ele>2302.4948730000001</ele>
        <time>2011-06-19T08:04:29Z</time>
      </trkpt>
      <trkpt lat="45.879143960773945" lon="7.967973947525024">
        <ele>2302.4948730000001</ele>
        <time>2011-06-19T08:04:44Z</time>
      </trkpt>
      <trkpt lat="45.879119150340557" lon="7.967867581173778">
        <ele>2305.3789059999999</ele>
        <time>2011-06-19T08:05:00Z</time>
      </trkpt>
      <trkpt lat="45.879094759002328" lon="7.967716874554753">
        <ele>2307.3015140000002</ele>
        <time>2011-06-19T08:05:13Z</time>
      </trkpt>
      <trkpt lat="45.879059555009007" lon="7.967554181814194">
        <ele>2309.7045899999998</ele>
        <time>2011-06-19T08:05:28Z</time>
      </trkpt>
      <trkpt lat="45.878998534753919" lon="7.9674640763551">
        <ele>2311.6274410000001</ele>
        <time>2011-06-19T08:05:49Z</time>
      </trkpt>
      <trkpt lat="45.878949835896492" lon="7.967333067208529">
        <ele>2313.5498050000001</ele>
        <time>2011-06-19T08:06:03Z</time>
      </trkpt>
      <trkpt lat="45.878909099847078" lon="7.967230724170804">
        <ele>2315.953125</ele>
        <time>2011-06-19T08:06:16Z</time>
      </trkpt>
      <trkpt lat="45.878858892247081" lon="7.967130895704031">
        <ele>2318.3566890000002</ele>
        <time>2011-06-19T08:06:30Z</time>
      </trkpt>
      <trkpt lat="45.878854030743241" lon="7.967112958431244">
        <ele>2318.3566890000002</ele>
        <time>2011-06-19T08:06:42Z</time>
      </trkpt>
      <trkpt lat="45.878824694082141" lon="7.967044059187174">
        <ele>2319.7985840000001</ele>
        <time>2011-06-19T08:07:04Z</time>
      </trkpt>
      <trkpt lat="45.87877431884408" lon="7.966941799968481">
        <ele>2322.6826169999999</ele>
        <time>2011-06-19T08:07:17Z</time>
      </trkpt>
      <trkpt lat="45.878762248903513" lon="7.966887569054961">
        <ele>2324.6052249999998</ele>
        <time>2011-06-19T08:07:26Z</time>
      </trkpt>
      <trkpt lat="45.878738863393664" lon="7.966756140813232">
        <ele>2326.0471189999998</ele>
        <time>2011-06-19T08:07:55Z</time>
      </trkpt>
      <trkpt lat="45.87868538685143" lon="7.966621946543455">
        <ele>2326.5278320000002</ele>
        <time>2011-06-19T08:08:08Z</time>
      </trkpt>
      <trkpt lat="45.878606429323554" lon="7.966533517464995">
        <ele>2328.4504390000002</ele>
        <time>2011-06-19T08:08:22Z</time>
      </trkpt>
      <trkpt lat="45.878573572263122" lon="7.966479789465666">
        <ele>2329.8923340000001</ele>
        <time>2011-06-19T08:08:34Z</time>
      </trkpt>
      <trkpt lat="45.878543062135577" lon="7.966378033161163">
        <ele>2330.373047</ele>
        <time>2011-06-19T08:08:46Z</time>
      </trkpt>
      <trkpt lat="45.878540463745594" lon="7.966282479465008">
        <ele>2331.3342290000001</ele>
        <time>2011-06-19T08:09:08Z</time>
      </trkpt>
      <trkpt lat="45.878493525087833" lon="7.966162282973528">
        <ele>2332.2958979999999</ele>
        <time>2011-06-19T08:09:22Z</time>
      </trkpt>
      <trkpt lat="45.878466367721558" lon="7.966086929664016">
        <ele>2332.2958979999999</ele>
        <time>2011-06-19T08:09:29Z</time>
      </trkpt>
      <trkpt lat="45.878454549238086" lon="7.96601383946836">
        <ele>2331.3342290000001</ele>
        <time>2011-06-19T08:09:43Z</time>
      </trkpt>
      <trkpt lat="45.878454884514213" lon="7.966020964086056">
        <ele>2334.2185060000002</ele>
        <time>2011-06-19T08:09:54Z</time>
      </trkpt>
      <trkpt lat="45.878454381600022" lon="7.966021969914436">
        <ele>2333.2570799999999</ele>
        <time>2011-06-19T08:09:57Z</time>
      </trkpt>
      <trkpt lat="45.878338040784001" lon="7.965298024937511">
        <ele>2319.3000000000002</ele>
        <time>2010-07-18T11:49:28Z</time>
      </trkpt>
      <trkpt lat="45.878334017470479" lon="7.965260976925492">
        <ele>2319.3000000000002</ele>
        <time>2010-07-18T11:48:22Z</time>
      </trkpt>
      <trkpt lat="45.878307027742267" lon="7.965146983042359">
        <ele>2316</ele>
        <time>2010-07-18T11:48:05Z</time>
      </trkpt>
      <trkpt lat="45.87829596363008" lon="7.965021003037691">
        <ele>2313.5</ele>
        <time>2010-07-18T11:47:51Z</time>
      </trkpt>
      <trkpt lat="45.878253970295191" lon="7.964909020811319">
        <ele>2310.1999999999998</ele>
        <time>2010-07-18T11:47:35Z</time>
      </trkpt>
      <trkpt lat="45.878223041072488" lon="7.964791003614664">
        <ele>2306.3000000000002</ele>
        <time>2010-07-18T11:47:20Z</time>
      </trkpt>
      <trkpt lat="45.8782500308007" lon="7.964661000296474">
        <ele>2306.8000000000002</ele>
        <time>2010-07-18T11:47:10Z</time>
      </trkpt>
      <trkpt lat="45.878283977508545" lon="7.964533008635044">
        <ele>2308.3000000000002</ele>
        <time>2010-07-18T11:47:00Z</time>
      </trkpt>
      <trkpt lat="45.878277020528913" lon="7.964393030852079">
        <ele>2306.8000000000002</ele>
        <time>2010-07-18T11:46:48Z</time>
      </trkpt>
      <trkpt lat="45.878253970295191" lon="7.964260010048747">
        <ele>2305.9000000000001</ele>
        <time>2010-07-18T11:46:36Z</time>
      </trkpt>
      <trkpt lat="45.878231003880501" lon="7.964121960103512">
        <ele>2303.9000000000001</ele>
        <time>2010-07-18T11:46:23Z</time>
      </trkpt>
      <trkpt lat="45.878216000273824" lon="7.96398701146245">
        <ele>2301.0999999999999</ele>
        <time>2010-07-18T11:46:11Z</time>
      </trkpt>
      <trkpt lat="45.878211976960301" lon="7.963851979002357">
        <ele>2300.5999999999999</ele>
        <time>2010-07-18T11:46:01Z</time>
      </trkpt>
      <trkpt lat="45.878154980018735" lon="7.96372801065445">
        <ele>2300.5999999999999</ele>
        <time>2010-07-18T11:45:48Z</time>
      </trkpt>
      <trkpt lat="45.878081973642111" lon="7.963640000671148">
        <ele>2294.8000000000002</ele>
        <time>2010-07-18T11:45:26Z</time>
      </trkpt>
      <trkpt lat="45.87801399640739" lon="7.963612005114555">
        <ele>2291.4000000000001</ele>
        <time>2010-07-18T11:45:09Z</time>
      </trkpt>
      <trkpt lat="45.87794903665781" lon="7.963515026494861">
        <ele>2287.0999999999999</ele>
        <time>2010-07-18T11:44:52Z</time>
      </trkpt>
      <trkpt lat="45.877876030281186" lon="7.963487030938268">
        <ele>2283.6999999999998</ele>
        <time>2010-07-18T11:44:35Z</time>
      </trkpt>
      <trkpt lat="45.877804029732943" lon="7.963477978482842">
        <ele>2279.4000000000001</ele>
        <time>2010-07-18T11:44:17Z</time>
      </trkpt>
      <trkpt lat="45.877731023356318" lon="7.963400026783347">
        <ele>2277</ele>
        <time>2010-07-18T11:43:59Z</time>
      </trkpt>
      <trkpt lat="45.877659022808075" lon="7.963421987369657">
        <ele>2273.1999999999998</ele>
        <time>2010-07-18T11:43:41Z</time>
      </trkpt>
      <trkpt lat="45.877613006159663" lon="7.963304976001382">
        <ele>2268.8000000000002</ele>
        <time>2010-07-18T11:43:21Z</time>
      </trkpt>
      <trkpt lat="45.877524996176362" lon="7.963317967951298">
        <ele>2265.5</ele>
        <time>2010-07-18T11:42:52Z</time>
      </trkpt>
      <trkpt lat="45.877441009506583" lon="7.963293995708227">
        <ele>2262.0999999999999</ele>
        <time>2010-07-18T11:42:30Z</time>
      </trkpt>
      <trkpt lat="45.877379989251494" lon="7.963287960737944">
        <ele>2258.3000000000002</ele>
        <time>2010-07-18T11:42:11Z</time>
      </trkpt>
      <trkpt lat="45.877316035330296" lon="7.963270023465157">
        <ele>2254.9000000000001</ele>
        <time>2010-07-18T11:41:53Z</time>
      </trkpt>
      <trkpt lat="45.877265995368361" lon="7.963199028745294">
        <ele>2252.5</ele>
        <time>2010-07-18T11:41:36Z</time>
      </trkpt>
      <trkpt lat="45.877189971506596" lon="7.963203974068165">
        <ele>2248.1999999999998</ele>
        <time>2010-07-18T11:41:15Z</time>
      </trkpt>
      <trkpt lat="45.877105984836817" lon="7.963196011260152">
        <ele>2243.4000000000001</ele>
        <time>2010-07-18T11:40:54Z</time>
      </trkpt>
      <trkpt lat="45.877078995108604" lon="7.963116969913244">
        <ele>2241</ele>
        <time>2010-07-18T11:40:38Z</time>
      </trkpt>
      <trkpt lat="45.87702602148056" lon="7.9630830232054">
        <ele>2237.0999999999999</ele>
        <time>2010-07-18T11:40:20Z</time>
      </trkpt>
      <trkpt lat="45.876980004832149" lon="7.962928041815758">
        <ele>2232.3000000000002</ele>
        <time>2010-07-18T11:40:02Z</time>
      </trkpt>
      <trkpt lat="45.876923007890582" lon="7.962819999083877">
        <ele>2230.4000000000001</ele>
        <time>2010-07-18T11:39:45Z</time>
      </trkpt>
      <trkpt lat="45.876869028434157" lon="7.962703993543983">
        <ele>2226.0999999999999</ele>
        <time>2010-07-18T11:39:18Z</time>
      </trkpt>
      <trkpt lat="45.876770038157701" lon="7.962756967172027">
        <ele>2221.3000000000002</ele>
        <time>2010-07-18T11:38:55Z</time>
      </trkpt>
      <trkpt lat="45.876731984317303" lon="7.962660994380713">
        <ele>2218.4000000000001</ele>
        <time>2010-07-18T11:38:39Z</time>
      </trkpt>
      <trkpt lat="45.876689990982413" lon="7.96254800632596">
        <ele>2215</ele>
        <time>2010-07-18T11:38:24Z</time>
      </trkpt>
      <trkpt lat="45.876601980999112" lon="7.96250400133431">
        <ele>2212.5999999999999</ele>
        <time>2010-07-18T11:38:06Z</time>
      </trkpt>
      <trkpt lat="45.876544984057546" lon="7.962329993024468">
        <ele>2207.3000000000002</ele>
        <time>2010-07-18T11:37:41Z</time>
      </trkpt>
      <trkpt lat="45.876511037349701" lon="7.962207030504942">
        <ele>2206.4000000000001</ele>
        <time>2010-07-18T11:37:26Z</time>
      </trkpt>
      <trkpt lat="45.876476000994444" lon="7.962084989994764">
        <ele>2204.4000000000001</ele>
        <time>2010-07-18T11:37:13Z</time>
      </trkpt>
      <trkpt lat="45.876408023759723" lon="7.961977031081915">
        <ele>2201.0999999999999</ele>
        <time>2010-07-18T11:36:59Z</time>
      </trkpt>
      <trkpt lat="45.876366030424833" lon="7.961901007220149">
        <ele>2197.6999999999998</ele>
        <time>2010-07-18T11:36:44Z</time>
      </trkpt>
      <trkpt lat="45.876289000734687" lon="7.961884997785091">
        <ele>2194.8000000000002</ele>
        <time>2010-07-18T11:36:20Z</time>
      </trkpt>
      <trkpt lat="45.876236027106643" lon="7.961782990023494">
        <ele>2192.4000000000001</ele>
        <time>2010-07-18T11:36:03Z</time>
      </trkpt>
      <trkpt lat="45.87625497020781" lon="7.961651980876923">
        <ele>2191.5</ele>
        <time>2010-07-18T11:35:52Z</time>
      </trkpt>
      <trkpt lat="45.876221023499966" lon="7.961534969508648">
        <ele>2189.5</ele>
        <time>2010-07-18T11:35:40Z</time>
      </trkpt>
      <trkpt lat="45.876170983538032" lon="7.961420975625515">
        <ele>2187.5999999999999</ele>
        <time>2010-07-18T11:35:27Z</time>
      </trkpt>
      <trkpt lat="45.876140976324677" lon="7.961290972307324">
        <ele>2186.6999999999998</ele>
        <time>2010-07-18T11:35:15Z</time>
      </trkpt>
      <trkpt lat="45.876098982989788" lon="7.96117496676743">
        <ele>2183.8000000000002</ele>
        <time>2010-07-18T11:35:04Z</time>
      </trkpt>
      <trkpt lat="45.876045003533363" lon="7.961067007854581">
        <ele>2180.9000000000001</ele>
        <time>2010-07-18T11:34:49Z</time>
      </trkpt>
      <trkpt lat="45.875968979671597" lon="7.960986960679293">
        <ele>2177.5</ele>
        <time>2010-07-18T11:34:34Z</time>
      </trkpt>
      <trkpt lat="45.875919023528695" lon="7.960887970402837">
        <ele>2176.0999999999999</ele>
        <time>2010-07-18T11:34:19Z</time>
      </trkpt>
      <trkpt lat="45.875853979960084" lon="7.960824016481638">
        <ele>2172.6999999999998</ele>
        <time>2010-07-18T11:33:48Z</time>
      </trkpt>
      <trkpt lat="45.87580100633204" lon="7.960719997063279">
        <ele>2170.3000000000002</ele>
        <time>2010-07-18T11:33:33Z</time>
      </trkpt>
      <trkpt lat="45.875748032703996" lon="7.960626035928726">
        <ele>2166.9000000000001</ele>
        <time>2010-07-18T11:33:18Z</time>
      </trkpt>
      <trkpt lat="45.875687012448907" lon="7.960581025108695">
        <ele>2164.0999999999999</ele>
        <time>2010-07-18T11:33:02Z</time>
      </trkpt>
      <trkpt lat="45.87562900967896" lon="7.960478011518717">
        <ele>2160.6999999999998</ele>
        <time>2010-07-18T11:32:46Z</time>
      </trkpt>
      <trkpt lat="45.875572012737393" lon="7.960355971008539">
        <ele>2158.3000000000002</ele>
        <time>2010-07-18T11:32:32Z</time>
      </trkpt>
      <trkpt lat="45.875548962503672" lon="7.960262009873986">
        <ele>2156.4000000000001</ele>
        <time>2010-07-18T11:32:05Z</time>
      </trkpt>
      <trkpt lat="45.875572012737393" lon="7.960157990455627">
        <ele>2154</ele>
        <time>2010-07-18T11:31:52Z</time>
      </trkpt>
      <trkpt lat="45.875546028837562" lon="7.960045002400875">
        <ele>2151.0999999999999</ele>
        <time>2010-07-18T11:31:11Z</time>
      </trkpt>
      <trkpt lat="45.875476961955428" lon="7.959965039044619">
        <ele>2149.1999999999998</ele>
        <time>2010-07-18T11:30:56Z</time>
      </trkpt>
      <trkpt lat="45.875438991934061" lon="7.959879040718079">
        <ele>2147.1999999999998</ele>
        <time>2010-07-18T11:30:39Z</time>
      </trkpt>
      <trkpt lat="45.875422982499003" lon="7.959781978279352">
        <ele>2144.4000000000001</ele>
        <time>2010-07-18T11:30:23Z</time>
      </trkpt>
      <trkpt lat="45.875335978344083" lon="7.959868982434273">
        <ele>2138.0999999999999</ele>
        <time>2010-07-18T11:30:00Z</time>
      </trkpt>
      <trkpt lat="45.875240005552769" lon="7.9599470179528">
        <ele>2135.1999999999998</ele>
        <time>2010-07-18T11:29:31Z</time>
      </trkpt>
      <trkpt lat="45.875229025259614" lon="7.959826989099383">
        <ele>2132.3000000000002</ele>
        <time>2010-07-18T11:29:15Z</time>
      </trkpt>
      <trkpt lat="45.875163981691003" lon="7.959779966622591">
        <ele>2125.5999999999999</ele>
        <time>2010-07-18T11:28:48Z</time>
      </trkpt>
      <trkpt lat="45.875091981142759" lon="7.95977502129972">
        <ele>2120.8000000000002</ele>
        <time>2010-07-18T11:28:21Z</time>
      </trkpt>
      <trkpt lat="45.875099021941423" lon="7.959611993283033">
        <ele>2117</ele>
        <time>2010-07-18T11:28:01Z</time>
      </trkpt>
      <trkpt lat="45.875038001686335" lon="7.959660021588206">
        <ele>2114.0999999999999</ele>
        <time>2010-07-18T11:27:44Z</time>
      </trkpt>
      <trkpt lat="45.874972958117723" lon="7.959752976894379">
        <ele>2111.1999999999998</ele>
        <time>2010-07-18T11:27:30Z</time>
      </trkpt>
      <trkpt lat="45.874886037781835" lon="7.959866970777512">
        <ele>2106.9000000000001</ele>
        <time>2010-07-18T11:27:09Z</time>
      </trkpt>
      <trkpt lat="45.874851001426578" lon="7.959752976894379">
        <ele>2101.5999999999999</ele>
        <time>2010-07-18T11:26:40Z</time>
      </trkpt>
      <trkpt lat="45.874828035011888" lon="7.959549967199564">
        <ele>2095.8000000000002</ele>
        <time>2010-07-18T11:26:13Z</time>
      </trkpt>
      <trkpt lat="45.874820994213223" lon="7.959404960274696">
        <ele>2092</ele>
        <time>2010-07-18T11:25:56Z</time>
      </trkpt>
      <trkpt lat="45.874840021133423" lon="7.959274034947157">
        <ele>2091</ele>
        <time>2010-07-18T11:25:42Z</time>
      </trkpt>
      <trkpt lat="45.874907998368144" lon="7.95915300026536">
        <ele>2088.0999999999999</ele>
        <time>2010-07-18T11:25:24Z</time>
      </trkpt>
      <trkpt lat="45.874949991703033" lon="7.958949990570545">
        <ele>2084.8000000000002</ele>
        <time>2010-07-18T11:25:02Z</time>
      </trkpt>
      <trkpt lat="45.874886037781835" lon="7.958858041092753">
        <ele>2079.9000000000001</ele>
        <time>2010-07-18T11:24:42Z</time>
      </trkpt>
      <trkpt lat="45.874843960627913" lon="7.958752010017633">
        <ele>2078</ele>
        <time>2010-07-18T11:24:25Z</time>
      </trkpt>
      <trkpt lat="45.874737007543445" lon="7.958617983385921">
        <ele>2070.8000000000002</ele>
        <time>2010-07-18T11:23:48Z</time>
      </trkpt>
      <trkpt lat="45.874695014208555" lon="7.958599962294102">
        <ele>2065.5</ele>
        <time>2010-07-18T11:23:33Z</time>
      </trkpt>
      <trkpt lat="45.874641034752131" lon="7.958610020577908">
        <ele>2063.0999999999999</ele>
        <time>2010-07-18T11:23:17Z</time>
      </trkpt>
      <trkpt lat="45.874618990346789" lon="7.958470964804292">
        <ele>2060.1999999999998</ele>
        <time>2010-07-18T11:23:06Z</time>
      </trkpt>
      <trkpt lat="45.874622007831931" lon="7.958306008949876">
        <ele>2057.4000000000001</ele>
        <time>2010-07-18T11:22:49Z</time>
      </trkpt>
      <trkpt lat="45.874644974246621" lon="7.958161002025008">
        <ele>2055.9000000000001</ele>
        <time>2010-07-18T11:22:32Z</time>
      </trkpt>
      <trkpt lat="45.874644974246621" lon="7.958009960129857">
        <ele>2050.0999999999999</ele>
        <time>2010-07-18T11:22:10Z</time>
      </trkpt>
      <trkpt lat="45.874622007831931" lon="7.957850033417344">
        <ele>2047.3</ele>
        <time>2010-07-18T11:21:51Z</time>
      </trkpt>
      <trkpt lat="45.8745769970119" lon="7.957888003438711">
        <ele>2043.9000000000001</ele>
        <time>2010-07-18T11:21:36Z</time>
      </trkpt>
      <trkpt lat="45.874512037262321" lon="7.958022030070424">
        <ele>2041.5</ele>
        <time>2010-07-18T11:21:20Z</time>
      </trkpt>
      <trkpt lat="45.874496027827263" lon="7.957869982346892">
        <ele>2040.0999999999999</ele>
        <time>2010-07-18T11:20:45Z</time>
      </trkpt>
      <trkpt lat="45.874457973986864" lon="7.95771399512887">
        <ele>2036.2</ele>
        <time>2010-07-18T11:20:30Z</time>
      </trkpt>
      <trkpt lat="45.87440500035882" lon="7.957501010969281">
        <ele>2030.9000000000001</ele>
        <time>2010-07-18T11:20:03Z</time>
      </trkpt>
      <trkpt lat="45.874373987317085" lon="7.957379976287484">
        <ele>2028</ele>
        <time>2010-07-18T11:19:48Z</time>
      </trkpt>
      <trkpt lat="45.874294023960829" lon="7.957314010709524">
        <ele>2025.2</ele>
        <time>2010-07-18T11:19:24Z</time>
      </trkpt>
      <trkpt lat="45.874415980651975" lon="7.957192976027727">
        <ele>2019.4000000000001</ele>
        <time>2010-07-18T11:18:57Z</time>
      </trkpt>
      <trkpt lat="45.874397037550807" lon="7.957074958831072">
        <ele>2018.4000000000001</ele>
        <time>2010-07-18T11:18:12Z</time>
      </trkpt>
      <trkpt lat="45.874343980103731" lon="7.956966999918222">
        <ele>2016</ele>
        <time>2010-07-18T11:17:58Z</time>
      </trkpt>
      <trkpt lat="45.874290000647306" lon="7.956872032955289">
        <ele>2014.0999999999999</ele>
        <time>2010-07-18T11:17:50Z</time>
      </trkpt>
      <trkpt lat="45.87423300370574" lon="7.956771031022072">
        <ele>2013.5999999999999</ele>
        <time>2010-07-18T11:17:42Z</time>
      </trkpt>
      <trkpt lat="45.874195033684373" lon="7.956651002168655">
        <ele>2016</ele>
        <time>2010-07-18T11:17:32Z</time>
      </trkpt>
      <trkpt lat="45.874153040349483" lon="7.956536002457142">
        <ele>2014.0999999999999</ele>
        <time>2010-07-18T11:17:17Z</time>
      </trkpt>
      <trkpt lat="45.874110963195562" lon="7.956426031887531">
        <ele>2011.7</ele>
        <time>2010-07-18T11:17:02Z</time>
      </trkpt>
      <trkpt lat="45.87408103980124" lon="7.956300973892212">
        <ele>2008.3</ele>
        <time>2010-07-18T11:16:48Z</time>
      </trkpt>
      <trkpt lat="45.874065030366182" lon="7.95616895891726">
        <ele>2005.4000000000001</ele>
        <time>2010-07-18T11:16:34Z</time>
      </trkpt>
      <trkpt lat="45.874038962647319" lon="7.956088995561004">
        <ele>2003</ele>
        <time>2010-07-18T11:16:22Z</time>
      </trkpt>
      <trkpt lat="45.873966040089726" lon="7.95616602525115">
        <ele>2001.0999999999999</ele>
        <time>2010-07-18T11:16:07Z</time>
      </trkpt>
      <trkpt lat="45.873881969600916" lon="7.956243976950645">
        <ele>1999.7</ele>
        <time>2010-07-18T11:15:54Z</time>
      </trkpt>
      <trkpt lat="45.873828995972872" lon="7.956202989444137">
        <ele>1995.8</ele>
        <time>2010-07-18T11:15:38Z</time>
      </trkpt>
      <trkpt lat="45.873755989596248" lon="7.956228973343968">
        <ele>1992.5</ele>
        <time>2010-07-18T11:15:23Z</time>
      </trkpt>
      <trkpt lat="45.873703015968204" lon="7.956154039129615">
        <ele>1988.0999999999999</ele>
        <time>2010-07-18T11:15:09Z</time>
      </trkpt>
      <trkpt lat="45.873683989048004" lon="7.956024035811424">
        <ele>1987.2</ele>
        <time>2010-07-18T11:14:57Z</time>
      </trkpt>
      <trkpt lat="45.873676026239991" lon="7.955909036099911">
        <ele>1985.7</ele>
        <time>2010-07-18T11:14:46Z</time>
      </trkpt>
      <trkpt lat="45.873600002378225" lon="7.955933008342981">
        <ele>1983.3</ele>
        <time>2010-07-18T11:14:35Z</time>
      </trkpt>
      <trkpt lat="45.873577035963535" lon="7.956054965034127">
        <ele>1985.3</ele>
        <time>2010-07-18T11:14:25Z</time>
      </trkpt>
      <trkpt lat="45.873573012650013" lon="7.955971984192729">
        <ele>1982.9000000000001</ele>
        <time>2010-07-18T11:13:38Z</time>
      </trkpt>
      <trkpt lat="45.873531019315124" lon="7.955863019451499">
        <ele>1980.9000000000001</ele>
        <time>2010-07-18T11:13:27Z</time>
      </trkpt>
      <trkpt lat="45.873439991846681" lon="7.955873999744654">
        <ele>1976.5999999999999</ele>
        <time>2010-07-18T11:13:12Z</time>
      </trkpt>
      <trkpt lat="45.873347958549857" lon="7.955875005573034">
        <ele>1974.2</ele>
        <time>2010-07-18T11:12:56Z</time>
      </trkpt>
      <trkpt lat="45.873276041820645" lon="7.955789007246494">
        <ele>1972.8</ele>
        <time>2010-07-18T11:12:43Z</time>
      </trkpt>
      <trkpt lat="45.873230025172234" lon="7.955679036676884">
        <ele>1971.3</ele>
        <time>2010-07-18T11:12:33Z</time>
      </trkpt>
      <trkpt lat="45.873154001310468" lon="7.955612987279892">
        <ele>1970.8</ele>
        <time>2010-07-18T11:12:23Z</time>
      </trkpt>
      <trkpt lat="45.873074037954211" lon="7.955550039187074">
        <ele>1969.4000000000001</ele>
        <time>2010-07-18T11:12:09Z</time>
      </trkpt>
      <trkpt lat="45.872977981343865" lon="7.955564958974719">
        <ele>1965.0999999999999</ele>
        <time>2010-07-18T11:11:52Z</time>
      </trkpt>
      <trkpt lat="45.872935988008976" lon="7.955464040860534">
        <ele>1962.7</ele>
        <time>2010-07-18T11:11:38Z</time>
      </trkpt>
      <trkpt lat="45.872883014380932" lon="7.955360021442175">
        <ele>1961.2</ele>
        <time>2010-07-18T11:11:25Z</time>
      </trkpt>
      <trkpt lat="45.872795004397631" lon="7.955324985086918">
        <ele>1959.8</ele>
        <time>2010-07-18T11:11:11Z</time>
      </trkpt>
      <trkpt lat="45.872700037434697" lon="7.955295983701944">
        <ele>1956.9000000000001</ele>
        <time>2010-07-18T11:10:56Z</time>
      </trkpt>
      <trkpt lat="45.872615966945887" lon="7.955223983153701">
        <ele>1953.0999999999999</ele>
        <time>2010-07-18T11:10:41Z</time>
      </trkpt>
      <trkpt lat="45.872516976669431" lon="7.955168997868896">
        <ele>1950.7</ele>
        <time>2010-07-18T11:10:23Z</time>
      </trkpt>
      <trkpt lat="45.872440030798316" lon="7.955109989270568">
        <ele>1947.3</ele>
        <time>2010-07-18T11:10:06Z</time>
      </trkpt>
      <trkpt lat="45.87236400693655" lon="7.955062966793776">
        <ele>1943.9000000000001</ele>
        <time>2010-07-18T11:09:52Z</time>
      </trkpt>
      <trkpt lat="45.872275996953249" lon="7.954988032579422">
        <ele>1941.5</ele>
        <time>2010-07-18T11:09:38Z</time>
      </trkpt>
      <trkpt lat="45.872295023873448" lon="7.954900022596121">
        <ele>1940.0999999999999</ele>
        <time>2010-07-18T11:08:38Z</time>
      </trkpt>
      <trkpt lat="45.872353026643395" lon="7.954828022047877">
        <ele>1937.7</ele>
        <time>2010-07-18T11:08:23Z</time>
      </trkpt>
      <trkpt lat="45.87234104052186" lon="7.954716039821506">
        <ele>1935.8</ele>
        <time>2010-07-18T11:08:10Z</time>
      </trkpt>
      <trkpt lat="45.872313966974616" lon="7.954589975997806">
        <ele>1935.3</ele>
        <time>2010-07-18T11:08:00Z</time>
      </trkpt>
      <trkpt lat="45.872295023873448" lon="7.954462990164757">
        <ele>1933.3</ele>
        <time>2010-07-18T11:07:48Z</time>
      </trkpt>
      <trkpt lat="45.872226962819695" lon="7.954379003494978">
        <ele>1930</ele>
        <time>2010-07-18T11:07:34Z</time>
      </trkpt>
      <trkpt lat="45.872226962819695" lon="7.954266015440226">
        <ele>1929</ele>
        <time>2010-07-18T11:07:21Z</time>
      </trkpt>
      <trkpt lat="45.87221103720367" lon="7.954149004071951">
        <ele>1927.0999999999999</ele>
        <time>2010-07-18T11:07:10Z</time>
      </trkpt>
      <trkpt lat="45.872135013341904" lon="7.954071974381805">
        <ele>1924.2</ele>
        <time>2010-07-18T11:06:58Z</time>
      </trkpt>
      <trkpt lat="45.872047003358603" lon="7.954005002975464">
        <ele>1924.7</ele>
        <time>2010-07-18T11:06:46Z</time>
      </trkpt>
      <trkpt lat="45.871952036395669" lon="7.954002991318703">
        <ele>1921.8</ele>
        <time>2010-07-18T11:06:28Z</time>
      </trkpt>
      <trkpt lat="45.871867965906858" lon="7.954048002138734">
        <ele>1918.9000000000001</ele>
        <time>2010-07-18T11:06:11Z</time>
      </trkpt>
      <trkpt lat="45.871788002550602" lon="7.954077003523707">
        <ele>1916</ele>
        <time>2010-07-18T11:05:53Z</time>
      </trkpt>
      <trkpt lat="45.871695969253778" lon="7.95408203266561">
        <ele>1914.0999999999999</ele>
        <time>2010-07-18T11:05:37Z</time>
      </trkpt>
      <trkpt lat="45.871635032817721" lon="7.954005002975464">
        <ele>1911.7</ele>
        <time>2010-07-18T11:05:22Z</time>
      </trkpt>
      <trkpt lat="45.871581975370646" lon="7.953915987163782">
        <ele>1907.4000000000001</ele>
        <time>2010-07-18T11:05:08Z</time>
      </trkpt>
      <trkpt lat="45.871601002290845" lon="7.953799981623888">
        <ele>1904.5</ele>
        <time>2010-07-18T11:04:53Z</time>
      </trkpt>
      <trkpt lat="45.871638972312212" lon="7.953687999397516">
        <ele>1903.5</ele>
        <time>2010-07-18T11:04:41Z</time>
      </trkpt>
      <trkpt lat="45.87165498174727" lon="7.95356897637248">
        <ele>1901.0999999999999</ele>
        <time>2010-07-18T11:04:29Z</time>
      </trkpt>
      <trkpt lat="45.871601002290845" lon="7.953461017459631">
        <ele>1899.2</ele>
        <time>2010-07-18T11:04:17Z</time>
      </trkpt>
      <trkpt lat="45.871521038934588" lon="7.953377030789852">
        <ele>1897.3</ele>
        <time>2010-07-18T11:04:04Z</time>
      </trkpt>
      <trkpt lat="45.871433028951287" lon="7.953315004706383">
        <ele>1895.9000000000001</ele>
        <time>2010-07-18T11:03:50Z</time>
      </trkpt>
      <trkpt lat="45.871357005089521" lon="7.95330704189837">
        <ele>1893</ele>
        <time>2010-07-18T11:03:27Z</time>
      </trkpt>
      <trkpt lat="45.871304031461477" lon="7.953306036069989">
        <ele>1893.5</ele>
        <time>2010-07-18T11:02:11Z</time>
      </trkpt>
      <trkpt lat="45.87128802202642" lon="7.953291032463312">
        <ele>1893</ele>
        <time>2010-07-18T11:01:29Z</time>
      </trkpt>
      <trkpt lat="45.871264971792698" lon="7.953179972246289">
        <ele>1890.5999999999999</ele>
        <time>2010-07-18T11:00:50Z</time>
      </trkpt>
      <trkpt lat="45.871238987892866" lon="7.953128004446626">
        <ele>1887.7</ele>
        <time>2010-07-18T10:59:35Z</time>
      </trkpt>
      <trkpt lat="45.871231025084853" lon="7.95326798222959">
        <ele>1887.7</ele>
        <time>2010-07-18T10:59:05Z</time>
      </trkpt>
      <trkpt lat="45.871243011206388" lon="7.953388011083007">
        <ele>1882.9000000000001</ele>
        <time>2010-07-18T10:58:48Z</time>
      </trkpt>
      <trkpt lat="45.871283998712897" lon="7.953513991087675">
        <ele>1879</ele>
        <time>2010-07-18T10:58:05Z</time>
      </trkpt>
      <trkpt lat="45.871283998712897" lon="7.953574005514383">
        <ele>1877.0999999999999</ele>
        <time>2010-07-18T10:57:49Z</time>
      </trkpt>
      <trkpt lat="45.871222978457808" lon="7.953615998849273">
        <ele>1874.2</ele>
        <time>2010-07-18T10:57:33Z</time>
      </trkpt>
      <trkpt lat="45.871150977909565" lon="7.953539974987507">
        <ele>1871.3</ele>
        <time>2010-07-18T10:57:19Z</time>
      </trkpt>
      <trkpt lat="45.871059028431773" lon="7.953492030501366">
        <ele>1868.9000000000001</ele>
        <time>2010-07-18T10:56:34Z</time>
      </trkpt>
      <trkpt lat="45.871071014553308" lon="7.953598983585835">
        <ele>1864.5999999999999</ele>
        <time>2010-07-18T10:55:55Z</time>
      </trkpt>
      <trkpt lat="45.87099096737802" lon="7.95360904186964">
        <ele>1859.3</ele>
        <time>2010-07-18T10:55:33Z</time>
      </trkpt>
      <trkpt lat="45.870917961001396" lon="7.953628990799189">
        <ele>1855.5</ele>
        <time>2010-07-18T10:55:10Z</time>
      </trkpt>
      <trkpt lat="45.870827017351985" lon="7.953579034656286">
        <ele>1851.2</ele>
        <time>2010-07-18T10:54:51Z</time>
      </trkpt>
      <trkpt lat="45.870785024017096" lon="7.953650029376149">
        <ele>1848.8</ele>
        <time>2010-07-18T10:54:32Z</time>
      </trkpt>
      <trkpt lat="45.87068896740675" lon="7.95358900912106">
        <ele>1844.9000000000001</ele>
        <time>2010-07-18T10:54:16Z</time>
      </trkpt>
      <trkpt lat="45.87064697407186" lon="7.953648017719388">
        <ele>1842.5</ele>
        <time>2010-07-18T10:53:57Z</time>
      </trkpt>
      <trkpt lat="45.87055996991694" lon="7.953641982749105">
        <ele>1838.7</ele>
        <time>2010-07-18T10:53:37Z</time>
      </trkpt>
      <trkpt lat="45.870529040694237" lon="7.953746002167463">
        <ele>1835.8</ele>
        <time>2010-07-18T10:53:21Z</time>
      </trkpt>
      <trkpt lat="45.870552007108927" lon="7.9538459982723">
        <ele>1836.7</ele>
        <time>2010-07-18T10:52:56Z</time>
      </trkpt>
      <trkpt lat="45.870444970205426" lon="7.953642988577485">
        <ele>1834.3</ele>
        <time>2010-07-18T10:52:18Z</time>
      </trkpt>
      <trkpt lat="45.870571034029126" lon="7.953752959147096">
        <ele>1833.9000000000001</ele>
        <time>2010-07-18T10:50:40Z</time>
      </trkpt>
      <trkpt lat="45.870486963540316" lon="7.953734016045928">
        <ele>1830.5</ele>
        <time>2010-07-18T10:50:21Z</time>
      </trkpt>
      <trkpt lat="45.870200973004103" lon="7.953795036301017">
        <ele>1819</ele>
        <time>2010-07-18T10:49:25Z</time>
      </trkpt>
      <trkpt lat="45.870055966079235" lon="7.953853039070964">
        <ele>1816.5</ele>
        <time>2010-07-18T10:49:01Z</time>
      </trkpt>
      <trkpt lat="45.869976002722979" lon="7.953795958310366">
        <ele>1814.0999999999999</ele>
        <time>2010-07-18T10:48:48Z</time>
      </trkpt>
      <trkpt lat="45.86991498246789" lon="7.953698979690671">
        <ele>1812.7</ele>
        <time>2010-07-18T10:48:35Z</time>
      </trkpt>
      <trkpt lat="45.869872989133" lon="7.95358900912106">
        <ele>1810.8</ele>
        <time>2010-07-18T10:48:23Z</time>
      </trkpt>
      <trkpt lat="45.869830995798111" lon="7.95348297804594">
        <ele>1808.9000000000001</ele>
        <time>2010-07-18T10:48:10Z</time>
      </trkpt>
      <trkpt lat="45.869773998856544" lon="7.953376024961472">
        <ele>1805.5</ele>
        <time>2010-07-18T10:47:58Z</time>
      </trkpt>
      <trkpt lat="45.86972001940012" lon="7.953262031078339">
        <ele>1804.5</ele>
        <time>2010-07-18T10:47:44Z</time>
      </trkpt>
      <trkpt lat="45.869670985266566" lon="7.953166980296373">
        <ele>1802.5999999999999</ele>
        <time>2010-07-18T10:47:30Z</time>
      </trkpt>
      <trkpt lat="45.869621029123664" lon="7.953056003898382">
        <ele>1800.2</ele>
        <time>2010-07-18T10:47:19Z</time>
      </trkpt>
      <trkpt lat="45.869555985555053" lon="7.952961036935449">
        <ele>1798.8</ele>
        <time>2010-07-18T10:47:07Z</time>
      </trkpt>
      <trkpt lat="45.869503011927009" lon="7.952859029173851">
        <ele>1796.4000000000001</ele>
        <time>2010-07-18T10:46:55Z</time>
      </trkpt>
      <trkpt lat="45.869456995278597" lon="7.952743023633957">
        <ele>1794</ele>
        <time>2010-07-18T10:46:43Z</time>
      </trkpt>
      <trkpt lat="45.869404021650553" lon="7.952632969245315">
        <ele>1792.5</ele>
        <time>2010-07-18T10:46:31Z</time>
      </trkpt>
      <trkpt lat="45.86939999833703" lon="7.952511012554169">
        <ele>1793</ele>
        <time>2010-07-18T10:46:22Z</time>
      </trkpt>
      <trkpt lat="45.869369991123676" lon="7.952388972043991">
        <ele>1789.2</ele>
        <time>2010-07-18T10:46:10Z</time>
      </trkpt>
      <trkpt lat="45.869323974475265" lon="7.952258968725801">
        <ele>1788.2</ele>
        <time>2010-07-18T10:45:58Z</time>
      </trkpt>
      <trkpt lat="45.869286004453897" lon="7.952136006206274">
        <ele>1786.3</ele>
        <time>2010-07-18T10:45:46Z</time>
      </trkpt>
      <trkpt lat="45.869208974763751" lon="7.952041961252689">
        <ele>1785.3</ele>
        <time>2010-07-18T10:45:33Z</time>
      </trkpt>
      <trkpt lat="45.869105961173773" lon="7.952026035636663">
        <ele>1783.4000000000001</ele>
        <time>2010-07-18T10:45:18Z</time>
      </trkpt>
      <trkpt lat="45.869015017524362" lon="7.951961997896433">
        <ele>1783.4000000000001</ele>
        <time>2010-07-18T10:45:08Z</time>
      </trkpt>
      <trkpt lat="45.868961038067937" lon="7.951865019276738">
        <ele>1780</ele>
        <time>2010-07-18T10:44:54Z</time>
      </trkpt>
      <trkpt lat="45.868922984227538" lon="7.951753037050366">
        <ele>1777.5999999999999</ele>
        <time>2010-07-18T10:44:40Z</time>
      </trkpt>
      <trkpt lat="45.86890404112637" lon="7.95163300819695">
        <ele>1775.7</ele>
        <time>2010-07-18T10:44:27Z</time>
      </trkpt>
      <trkpt lat="45.868916027247906" lon="7.951518008485436">
        <ele>1773.3</ele>
        <time>2010-07-18T10:44:13Z</time>
      </trkpt>
      <trkpt lat="45.868907980620861" lon="7.951396973803639">
        <ele>1770.4000000000001</ele>
        <time>2010-07-18T10:43:58Z</time>
      </trkpt>
      <trkpt lat="45.868870010599494" lon="7.951287003234029">
        <ele>1769</ele>
        <time>2010-07-18T10:43:46Z</time>
      </trkpt>
      <trkpt lat="45.868804967030883" lon="7.95120301656425">
        <ele>1764.5999999999999</ele>
        <time>2010-07-18T10:43:29Z</time>
      </trkpt>
      <trkpt lat="45.868751993402839" lon="7.951112994924188">
        <ele>1763.2</ele>
        <time>2010-07-18T10:43:17Z</time>
      </trkpt>
      <trkpt lat="45.868687033653259" lon="7.951045017689467">
        <ele>1759.8</ele>
        <time>2010-07-18T10:43:01Z</time>
      </trkpt>
      <trkpt lat="45.868614027276635" lon="7.950971005484462">
        <ele>1756</ele>
        <time>2010-07-18T10:42:45Z</time>
      </trkpt>
      <trkpt lat="45.868564993143082" lon="7.950919037684798">
        <ele>1754.5</ele>
        <time>2010-07-18T10:42:31Z</time>
      </trkpt>
      <trkpt lat="45.868522999808192" lon="7.950882995501161">
        <ele>1749.3</ele>
        <time>2010-07-18T10:41:36Z</time>
      </trkpt>
      <trkpt lat="45.86849601007998" lon="7.950780987739563">
        <ele>1745.9000000000001</ele>
        <time>2010-07-18T10:41:19Z</time>
      </trkpt>
      <trkpt lat="45.868412023410201" lon="7.950842007994652">
        <ele>1744.9000000000001</ele>
        <time>2010-07-18T10:41:02Z</time>
      </trkpt>
      <trkpt lat="45.868358965963125" lon="7.950833039358258">
        <ele>1740.5999999999999</ele>
        <time>2010-07-18T10:40:43Z</time>
      </trkpt>
      <trkpt lat="45.868343040347099" lon="7.950721979141235">
        <ele>1737.7</ele>
        <time>2010-07-18T10:40:26Z</time>
      </trkpt>
      <trkpt lat="45.868285959586501" lon="7.950762966647744">
        <ele>1734.4000000000001</ele>
        <time>2010-07-18T10:40:08Z</time>
      </trkpt>
      <trkpt lat="45.868220999836922" lon="7.950836978852749">
        <ele>1730.5</ele>
        <time>2010-07-18T10:39:48Z</time>
      </trkpt>
      <trkpt lat="45.868156040087342" lon="7.950930017977953">
        <ele>1727.0999999999999</ele>
        <time>2010-07-18T10:39:34Z</time>
      </trkpt>
      <trkpt lat="45.868122009560466" lon="7.950922977179289">
        <ele>1723.8</ele>
        <time>2010-07-18T10:39:14Z</time>
      </trkpt>
      <trkpt lat="45.868084039539099" lon="7.950802026316524">
        <ele>1719</ele>
        <time>2010-07-18T10:38:55Z</time>
      </trkpt>
      <trkpt lat="45.868075992912054" lon="7.95068702660501">
        <ele>1716.0999999999999</ele>
        <time>2010-07-18T10:38:38Z</time>
      </trkpt>
      <trkpt lat="45.868050009012222" lon="7.950568003579974">
        <ele>1713.7</ele>
        <time>2010-07-18T10:38:22Z</time>
      </trkpt>
      <trkpt lat="45.868030982092023" lon="7.950438000261784">
        <ele>1711.3</ele>
        <time>2010-07-18T10:38:08Z</time>
      </trkpt>
      <trkpt lat="45.867954036220908" lon="7.950357031077147">
        <ele>1706.5</ele>
        <time>2010-07-18T10:37:45Z</time>
      </trkpt>
      <trkpt lat="45.867882035672665" lon="7.950477981939912">
        <ele>1702.2</ele>
        <time>2010-07-18T10:37:26Z</time>
      </trkpt>
      <trkpt lat="45.867831995710731" lon="7.950659031048417">
        <ele>1699.3</ele>
        <time>2010-07-18T10:37:03Z</time>
      </trkpt>
      <trkpt lat="45.867737028747797" lon="7.950785011053085">
        <ele>1693</ele>
        <time>2010-07-18T10:36:36Z</time>
      </trkpt>
      <trkpt lat="45.86759596131742" lon="7.95073002576828">
        <ele>1686.3</ele>
        <time>2010-07-18T10:36:10Z</time>
      </trkpt>
      <trkpt lat="45.867462018504739" lon="7.950618965551257">
        <ele>1682</ele>
        <time>2010-07-18T10:35:45Z</time>
      </trkpt>
      <trkpt lat="45.867374008521438" lon="7.950506983324885">
        <ele>1681</ele>
        <time>2010-07-18T10:35:34Z</time>
      </trkpt>
      <trkpt lat="45.867275018244982" lon="7.950396006926894">
        <ele>1678.5999999999999</ele>
        <time>2010-07-18T10:35:16Z</time>
      </trkpt>
      <trkpt lat="45.867209974676371" lon="7.950284024700522">
        <ele>1674.8</ele>
        <time>2010-07-18T10:34:59Z</time>
      </trkpt>
      <trkpt lat="45.867149038240314" lon="7.950181011110544">
        <ele>1671.9000000000001</ele>
        <time>2010-07-18T10:34:43Z</time>
      </trkpt>
      <trkpt lat="45.86710000410676" lon="7.950208000838757">
        <ele>1668.5</ele>
        <time>2010-07-18T10:34:26Z</time>
      </trkpt>
      <trkpt lat="45.867064967751503" lon="7.950091995298863">
        <ele>1666.0999999999999</ele>
        <time>2010-07-18T10:34:14Z</time>
      </trkpt>
      <trkpt lat="45.867031021043658" lon="7.949986970052123">
        <ele>1664.2</ele>
        <time>2010-07-18T10:33:59Z</time>
      </trkpt>
      <trkpt lat="45.867007970809937" lon="7.949922010302544">
        <ele>1660.8</ele>
        <time>2010-07-18T10:33:46Z</time>
      </trkpt>
      <trkpt lat="45.867004031315446" lon="7.949799969792366">
        <ele>1660.8</ele>
        <time>2010-07-18T10:33:37Z</time>
      </trkpt>
      <trkpt lat="45.866959020495415" lon="7.949686981737614">
        <ele>1657.9000000000001</ele>
        <time>2010-07-18T10:33:22Z</time>
      </trkpt>
      <trkpt lat="45.866901017725468" lon="7.949595032259822">
        <ele>1655.5</ele>
        <time>2010-07-18T10:33:08Z</time>
      </trkpt>
      <trkpt lat="45.866817031055689" lon="7.949492018669844">
        <ele>1652.2</ele>
        <time>2010-07-18T10:32:49Z</time>
      </trkpt>
      <trkpt lat="45.866763973608613" lon="7.949394034221768">
        <ele>1649.8</ele>
        <time>2010-07-18T10:32:33Z</time>
      </trkpt>
      <trkpt lat="45.866714017465711" lon="7.949526971206069">
        <ele>1646.4000000000001</ele>
        <time>2010-07-18T10:32:17Z</time>
      </trkpt>
      <trkpt lat="45.866646040230989" lon="7.949563013389707">
        <ele>1641.5999999999999</ele>
        <time>2010-07-18T10:32:00Z</time>
      </trkpt>
      <trkpt lat="45.866561969742179" lon="7.94950601644814">
        <ele>1640.0999999999999</ele>
        <time>2010-07-18T10:31:43Z</time>
      </trkpt>
      <trkpt lat="45.8664779830724" lon="7.949448013678193">
        <ele>1637.3</ele>
        <time>2010-07-18T10:31:29Z</time>
      </trkpt>
      <trkpt lat="45.866425009444356" lon="7.949343994259834">
        <ele>1633.4000000000001</ele>
        <time>2010-07-18T10:31:15Z</time>
      </trkpt>
      <trkpt lat="45.866341022774577" lon="7.949285991489887">
        <ele>1630.5</ele>
        <time>2010-07-18T10:31:01Z</time>
      </trkpt>
      <trkpt lat="45.866352003067732" lon="7.949190018698573">
        <ele>1628.0999999999999</ele>
        <time>2010-07-18T10:30:36Z</time>
      </trkpt>
      <trkpt lat="45.866268016397953" lon="7.949139978736639">
        <ele>1625.2</ele>
        <time>2010-07-18T10:30:22Z</time>
      </trkpt>
      <trkpt lat="45.866180006414652" lon="7.949052974581718">
        <ele>1622.8</ele>
        <time>2010-07-18T10:30:10Z</time>
      </trkpt>
      <trkpt lat="45.866115968674421" lon="7.949034031480551">
        <ele>1619.5</ele>
        <time>2010-07-18T10:29:24Z</time>
      </trkpt>
      <trkpt lat="45.866127032786608" lon="7.949203010648489">
        <ele>1617.5999999999999</ele>
        <time>2010-07-18T10:29:11Z</time>
      </trkpt>
      <trkpt lat="45.866157962009311" lon="7.949363021180034">
        <ele>1614.7</ele>
        <time>2010-07-18T10:28:59Z</time>
      </trkpt>
      <trkpt lat="45.866187969222665" lon="7.949522025883198">
        <ele>1614.2</ele>
        <time>2010-07-18T10:28:46Z</time>
      </trkpt>
      <trkpt lat="45.866238009184599" lon="7.949669966474176">
        <ele>1614.2</ele>
        <time>2010-07-18T10:28:36Z</time>
      </trkpt>
      <trkpt lat="45.866268016397953" lon="7.949874987825751">
        <ele>1612.7</ele>
        <time>2010-07-18T10:28:15Z</time>
      </trkpt>
      <trkpt lat="45.866317972540855" lon="7.950031980872154">
        <ele>1613.2</ele>
        <time>2010-07-18T10:28:05Z</time>
      </trkpt>
      <trkpt lat="45.866359965875745" lon="7.950160978361964">
        <ele>1612.7</ele>
        <time>2010-07-18T10:27:54Z</time>
      </trkpt>
      <trkpt lat="45.866295006126165" lon="7.950333980843425">
        <ele>1607.9000000000001</ele>
        <time>2010-07-18T10:27:28Z</time>
      </trkpt>
      <trkpt lat="45.866187969222665" lon="7.950313026085496">
        <ele>1604.5999999999999</ele>
        <time>2010-07-18T10:27:07Z</time>
      </trkpt>
      <trkpt lat="45.866088978946209" lon="7.95017003081739">
        <ele>1599.8</ele>
        <time>2010-07-18T10:26:43Z</time>
      </trkpt>
      <trkpt lat="45.866009015589952" lon="7.950116973370314">
        <ele>1595.9000000000001</ele>
        <time>2010-07-18T10:26:24Z</time>
      </trkpt>
      <trkpt lat="45.865916982293129" lon="7.950023012235761">
        <ele>1592.5999999999999</ele>
        <time>2010-07-18T10:26:07Z</time>
      </trkpt>
      <trkpt lat="45.865795025601983" lon="7.949744984507561">
        <ele>1583.9000000000001</ele>
        <time>2010-07-18T10:25:21Z</time>
      </trkpt>
      <trkpt lat="45.865635015070438" lon="7.949516996741295">
        <ele>1575.7</ele>
        <time>2010-07-18T10:24:41Z</time>
      </trkpt>
      <trkpt lat="45.865481961518526" lon="7.949414988979697">
        <ele>1571.4000000000001</ele>
        <time>2010-07-18T10:24:16Z</time>
      </trkpt>
      <trkpt lat="45.865340977907181" lon="7.949322033673525">
        <ele>1566.5999999999999</ele>
        <time>2010-07-18T10:23:54Z</time>
      </trkpt>
      <trkpt lat="45.86523100733757" lon="7.94924802146852">
        <ele>1564.7</ele>
        <time>2010-07-18T10:23:34Z</time>
      </trkpt>
      <trkpt lat="45.86512397043407" lon="7.949159005656838">
        <ele>1560.8</ele>
        <time>2010-07-18T10:23:13Z</time>
      </trkpt>
      <trkpt lat="45.865054987370968" lon="7.949081975966692">
        <ele>1556.5</ele>
        <time>2010-07-18T10:23:00Z</time>
      </trkpt>
      <trkpt lat="45.86495197378099" lon="7.948941998183727">
        <ele>1552.7</ele>
        <time>2010-07-18T10:22:37Z</time>
      </trkpt>
      <trkpt lat="45.864848960191011" lon="7.948794979602099">
        <ele>1547.4000000000001</ele>
        <time>2010-07-18T10:22:08Z</time>
      </trkpt>
      <trkpt lat="45.864742007106543" lon="7.948572020977736">
        <ele>1541.5999999999999</ele>
        <time>2010-07-18T10:21:27Z</time>
      </trkpt>
      <trkpt lat="45.864661959931254" lon="7.948414022102952">
        <ele>1533.9000000000001</ele>
        <time>2010-07-18T10:20:59Z</time>
      </trkpt>
      <trkpt lat="45.864493986591697" lon="7.948183016851544">
        <ele>1526.7</ele>
        <time>2010-07-18T10:20:22Z</time>
      </trkpt>
      <trkpt lat="45.864281002432108" lon="7.948014959692955">
        <ele>1519</ele>
        <time>2010-07-18T10:19:42Z</time>
      </trkpt>
      <trkpt lat="45.864300029352307" lon="7.947816979140043">
        <ele>1511.8</ele>
        <time>2010-07-18T10:19:09Z</time>
      </trkpt>
      <trkpt lat="45.864345962181687" lon="7.947688987478614">
        <ele>1506.5</ele>
        <time>2010-07-18T10:18:41Z</time>
      </trkpt>
      <trkpt lat="45.864276979118586" lon="7.947511961683631">
        <ele>1501.2</ele>
        <time>2010-07-18T10:18:05Z</time>
      </trkpt>
      <trkpt lat="45.864219982177019" lon="7.947342982515693">
        <ele>1492.5999999999999</ele>
        <time>2010-07-18T10:17:38Z</time>
      </trkpt>
      <trkpt lat="45.864219982177019" lon="7.94720602221787">
        <ele>1492.0999999999999</ele>
        <time>2010-07-18T10:17:26Z</time>
      </trkpt>
      <trkpt lat="45.864203972741961" lon="7.947073001414537">
        <ele>1491.0999999999999</ele>
        <time>2010-07-18T10:17:14Z</time>
      </trkpt>
      <trkpt lat="45.864215958863497" lon="7.946939980611205">
        <ele>1487.8</ele>
        <time>2010-07-18T10:17:03Z</time>
      </trkpt>
      <trkpt lat="45.864273039624095" lon="7.94684199616313">
        <ele>1487.3</ele>
        <time>2010-07-18T10:16:54Z</time>
      </trkpt>
      <trkpt lat="45.864249989390373" lon="7.946724984794855">
        <ele>1486.3</ele>
        <time>2010-07-18T10:16:43Z</time>
      </trkpt>
      <trkpt lat="45.864219982177019" lon="7.946600010618568">
        <ele>1485.9000000000001</ele>
        <time>2010-07-18T10:16:34Z</time>
      </trkpt>
      <trkpt lat="45.864230962470174" lon="7.946446035057306">
        <ele>1483.9000000000001</ele>
        <time>2010-07-18T10:16:23Z</time>
      </trkpt>
      <trkpt lat="45.864261975511909" lon="7.946318965405226">
        <ele>1483.5</ele>
        <time>2010-07-18T10:16:14Z</time>
      </trkpt>
      <trkpt lat="45.864276979118586" lon="7.946206983178854">
        <ele>1483.9000000000001</ele>
        <time>2010-07-18T10:16:05Z</time>
      </trkpt>
      <trkpt lat="45.864326013252139" lon="7.946072034537792">
        <ele>1483.9000000000001</ele>
        <time>2010-07-18T10:15:55Z</time>
      </trkpt>
      <trkpt lat="45.864368006587029" lon="7.945927027612925">
        <ele>1484.9000000000001</ele>
        <time>2010-07-18T10:15:43Z</time>
      </trkpt>
      <trkpt lat="45.864375969395041" lon="7.945796018466353">
        <ele>1483.5</ele>
        <time>2010-07-18T10:15:33Z</time>
      </trkpt>
      <trkpt lat="45.864505972713232" lon="7.945658974349499">
        <ele>1476.7</ele>
        <time>2010-07-18T10:15:06Z</time>
      </trkpt>
      <trkpt lat="45.864529022946954" lon="7.945590997114778">
        <ele>1469.5</ele>
        <time>2010-07-18T10:14:33Z</time>
      </trkpt>
      <trkpt lat="45.864619966596365" lon="7.945516984909773">
        <ele>1465.7</ele>
        <time>2010-07-18T10:14:12Z</time>
      </trkpt>
      <trkpt lat="45.864746030420065" lon="7.945483960211277">
        <ele>1460.9000000000001</ele>
        <time>2010-07-18T10:13:54Z</time>
      </trkpt>
      <trkpt lat="45.864845020696521" lon="7.945460993796587">
        <ele>1459.9000000000001</ele>
        <time>2010-07-18T10:13:43Z</time>
      </trkpt>
      <trkpt lat="45.864863963797688" lon="7.945315986871719">
        <ele>1456.5</ele>
        <time>2010-07-18T10:13:17Z</time>
      </trkpt>
      <trkpt lat="45.864882990717888" lon="7.945192018523812">
        <ele>1451.7</ele>
        <time>2010-07-18T10:12:55Z</time>
      </trkpt>
      <trkpt lat="45.864834040403366" lon="7.945080036297441">
        <ele>1449.3</ele>
        <time>2010-07-18T10:12:40Z</time>
      </trkpt>
      <trkpt lat="45.864799004048109" lon="7.944865040481091">
        <ele>1442.0999999999999</ele>
        <time>2010-07-18T10:12:07Z</time>
      </trkpt>
      <trkpt lat="45.864788023754954" lon="7.944669993594289">
        <ele>1429.0999999999999</ele>
        <time>2010-07-18T10:11:08Z</time>
      </trkpt>
      <trkpt lat="45.864704037085176" lon="7.944566980004311">
        <ele>1422.9000000000001</ele>
        <time>2010-07-18T10:10:44Z</time>
      </trkpt>
      <trkpt lat="45.864655002951622" lon="7.944438988342881">
        <ele>1420</ele>
        <time>2010-07-18T10:10:33Z</time>
      </trkpt>
      <trkpt lat="45.864547966048121" lon="7.944289958104491">
        <ele>1418.5999999999999</ele>
        <time>2010-07-18T10:10:16Z</time>
      </trkpt>
      <trkpt lat="45.864577973261476" lon="7.944209994748235">
        <ele>1414.7</ele>
        <time>2010-07-18T10:09:26Z</time>
      </trkpt>
      <trkpt lat="45.864529022946954" lon="7.944041015580297">
        <ele>1407.5</ele>
        <time>2010-07-18T10:08:55Z</time>
      </trkpt>
      <trkpt lat="45.864581996574998" lon="7.943873964250088">
        <ele>1402.7</ele>
        <time>2010-07-18T10:08:31Z</time>
      </trkpt>
      <trkpt lat="45.864555006846786" lon="7.943740021437407">
        <ele>1399.8</ele>
        <time>2010-07-18T10:08:08Z</time>
      </trkpt>
      <trkpt lat="45.864463979378343" lon="7.943738009780645">
        <ele>1393.5999999999999</ele>
        <time>2010-07-18T10:07:40Z</time>
      </trkpt>
      <trkpt lat="45.864364989101887" lon="7.943536005914211">
        <ele>1386.8</ele>
        <time>2010-07-18T10:07:07Z</time>
      </trkpt>
      <trkpt lat="45.864445036277175" lon="7.94338496401906">
        <ele>1384</ele>
        <time>2010-07-18T10:06:49Z</time>
      </trkpt>
      <trkpt lat="45.864445036277175" lon="7.943222019821405">
        <ele>1380.0999999999999</ele>
        <time>2010-07-18T10:06:27Z</time>
      </trkpt>
      <trkpt lat="45.864402959123254" lon="7.943099979311228">
        <ele>1368.0999999999999</ele>
        <time>2010-07-18T10:05:38Z</time>
      </trkpt>
      <trkpt lat="45.864311009645462" lon="7.942987997084856">
        <ele>1363.3</ele>
        <time>2010-07-18T10:05:13Z</time>
      </trkpt>
      <trkpt lat="45.864269016310573" lon="7.942733019590378">
        <ele>1354.5999999999999</ele>
        <time>2010-07-18T10:04:36Z</time>
      </trkpt>
      <trkpt lat="45.86430698633194" lon="7.942540990188718">
        <ele>1350.8</ele>
        <time>2010-07-18T10:04:14Z</time>
      </trkpt>
      <trkpt lat="45.864215958863497" lon="7.942224992439151">
        <ele>1344.0999999999999</ele>
        <time>2010-07-18T10:03:37Z</time>
      </trkpt>
      <trkpt lat="45.864173965528607" lon="7.942073028534651">
        <ele>1341.7</ele>
        <time>2010-07-18T10:03:23Z</time>
      </trkpt>
      <trkpt lat="45.863944971933961" lon="7.94164496473968">
        <ele>1332</ele>
        <time>2010-07-18T10:02:29Z</time>
      </trkpt>
      <trkpt lat="45.86383399553597" lon="7.94153499417007">
        <ele>1325.3</ele>
        <time>2010-07-18T10:01:57Z</time>
      </trkpt>
      <trkpt lat="45.86372796446085" lon="7.941417982801795">
        <ele>1321</ele>
        <time>2010-07-18T10:01:39Z</time>
      </trkpt>
      <trkpt lat="45.863574994727969" lon="7.941313963383436">
        <ele>1317.0999999999999</ele>
        <time>2010-07-18T10:01:19Z</time>
      </trkpt>
      <trkpt lat="45.86355596780777" lon="7.941178008913994">
        <ele>1316.2</ele>
        <time>2010-07-18T10:01:08Z</time>
      </trkpt>
      <trkpt lat="45.863486984744668" lon="7.941068960353732">
        <ele>1313.8</ele>
        <time>2010-07-18T10:00:54Z</time>
      </trkpt>
      <trkpt lat="45.863422024995089" lon="7.940962007269263">
        <ele>1311.9000000000001</ele>
        <time>2010-07-18T10:00:40Z</time>
      </trkpt>
      <trkpt lat="45.863277018070221" lon="7.940819012001157">
        <ele>1306.5999999999999</ele>
        <time>2010-07-18T10:00:17Z</time>
      </trkpt>
      <trkpt lat="45.863200994208455" lon="7.940738964825869">
        <ele>1304.2</ele>
        <time>2010-07-18T10:00:06Z</time>
      </trkpt>
      <trkpt lat="45.863148020580411" lon="7.940626982599497">
        <ele>1304.2</ele>
        <time>2010-07-18T09:59:56Z</time>
      </trkpt>
      <trkpt lat="45.863070990890265" lon="7.940476024523377">
        <ele>1303.2</ele>
        <time>2010-07-18T09:59:31Z</time>
      </trkpt>
      <trkpt lat="45.862991027534008" lon="7.940363958477974">
        <ele>1298.9000000000001</ele>
        <time>2010-07-18T09:59:16Z</time>
      </trkpt>
      <trkpt lat="45.862930007278919" lon="7.940211994573474">
        <ele>1297</ele>
        <time>2010-07-18T09:59:03Z</time>
      </trkpt>
      <trkpt lat="45.862822970375419" lon="7.940272009000182">
        <ele>1294.0999999999999</ele>
        <time>2010-07-18T09:58:45Z</time>
      </trkpt>
      <trkpt lat="45.862785000354052" lon="7.940335962921381">
        <ele>1292.0999999999999</ele>
        <time>2010-07-18T09:58:32Z</time>
      </trkpt>
      <trkpt lat="45.862723980098963" lon="7.940355995669961">
        <ele>1290.2</ele>
        <time>2010-07-18T09:58:07Z</time>
      </trkpt>
      <trkpt lat="45.862681986764073" lon="7.940242001786828">
        <ele>1288.3</ele>
        <time>2010-07-18T09:57:56Z</time>
      </trkpt>
      <trkpt lat="45.862576039507985" lon="7.940130019560456">
        <ele>1286.9000000000001</ele>
        <time>2010-07-18T09:57:45Z</time>
      </trkpt>
      <trkpt lat="45.862449975684285" lon="7.940013008192182">
        <ele>1285.9000000000001</ele>
        <time>2010-07-18T09:57:34Z</time>
      </trkpt>
      <trkpt lat="45.862391972914338" lon="7.939898008480668">
        <ele>1285.4000000000001</ele>
        <time>2010-07-18T09:57:23Z</time>
      </trkpt>
      <trkpt lat="45.862328018993139" lon="7.939797006547451">
        <ele>1281.0999999999999</ele>
        <time>2010-07-18T09:57:05Z</time>
      </trkpt>
      <trkpt lat="45.862282002344728" lon="7.939682006835938">
        <ele>1280.0999999999999</ele>
        <time>2010-07-18T09:56:55Z</time>
      </trkpt>
      <trkpt lat="45.862255012616515" lon="7.939556026831269">
        <ele>1278.7</ele>
        <time>2010-07-18T09:56:44Z</time>
      </trkpt>
      <trkpt lat="45.862202038988471" lon="7.939429963007569">
        <ele>1276.3</ele>
        <time>2010-07-18T09:56:33Z</time>
      </trkpt>
      <trkpt lat="45.862156022340059" lon="7.939334996044636">
        <ele>1272.4000000000001</ele>
        <time>2010-07-18T09:56:19Z</time>
      </trkpt>
      <trkpt lat="45.86211402900517" lon="7.93925897218287">
        <ele>1271.5</ele>
        <time>2010-07-18T09:56:09Z</time>
      </trkpt>
      <trkpt lat="45.861996011808515" lon="7.939213961362839">
        <ele>1273.9000000000001</ele>
        <time>2010-07-18T09:55:58Z</time>
      </trkpt>
      <trkpt lat="45.861976984888315" lon="7.939120000228286">
        <ele>1272</ele>
        <time>2010-07-18T09:55:20Z</time>
      </trkpt>
      <trkpt lat="45.861915964633226" lon="7.939010029658675">
        <ele>1270</ele>
        <time>2010-07-18T09:55:10Z</time>
      </trkpt>
      <trkpt lat="45.861866008490324" lon="7.938890000805259">
        <ele>1267.5999999999999</ele>
        <time>2010-07-18T09:55:00Z</time>
      </trkpt>
      <trkpt lat="45.861819991841912" lon="7.938776006922126">
        <ele>1267.2</ele>
        <time>2010-07-18T09:54:51Z</time>
      </trkpt>
      <trkpt lat="45.861762994900346" lon="7.938668970018625">
        <ele>1266.7</ele>
        <time>2010-07-18T09:54:42Z</time>
      </trkpt>
      <trkpt lat="45.861713038757443" lon="7.938565034419298">
        <ele>1265.2</ele>
        <time>2010-07-18T09:54:33Z</time>
      </trkpt>
      <trkpt lat="45.86166400462389" lon="7.938451962545514">
        <ele>1263.3</ele>
        <time>2010-07-18T09:54:24Z</time>
      </trkpt>
      <trkpt lat="45.861613964661956" lon="7.938338974490762">
        <ele>1261.4000000000001</ele>
        <time>2010-07-18T09:54:15Z</time>
      </trkpt>
      <trkpt lat="45.861565014347434" lon="7.938224980607629">
        <ele>1259.5</ele>
        <time>2010-07-18T09:54:06Z</time>
      </trkpt>
      <trkpt lat="45.861507011577487" lon="7.93811802752316">
        <ele>1259</ele>
        <time>2010-07-18T09:53:57Z</time>
      </trkpt>
      <trkpt lat="45.861420007422566" lon="7.938056001439691">
        <ele>1257.0999999999999</ele>
        <time>2010-07-18T09:53:47Z</time>
      </trkpt>
      <trkpt lat="45.861336020752788" lon="7.938122972846031">
        <ele>1256.5999999999999</ele>
        <time>2010-07-18T09:53:38Z</time>
      </trkpt>
      <trkpt lat="45.861252034083009" lon="7.938219029456377">
        <ele>1256.0999999999999</ele>
        <time>2010-07-18T09:53:29Z</time>
      </trkpt>
      <trkpt lat="45.861144997179508" lon="7.938240990042687">
        <ele>1254.2</ele>
        <time>2010-07-18T09:53:19Z</time>
      </trkpt>
      <trkpt lat="45.860965959727764" lon="7.938147028908134">
        <ele>1250.3</ele>
        <time>2010-07-18T09:52:57Z</time>
      </trkpt>
      <trkpt lat="45.860866969451308" lon="7.938315002247691">
        <ele>1250.8</ele>
        <time>2010-07-18T09:52:31Z</time>
      </trkpt>
      <trkpt lat="45.860755993053317" lon="7.9383559897542">
        <ele>1248.4000000000001</ele>
        <time>2010-07-18T09:52:14Z</time>
      </trkpt>
      <trkpt lat="45.860676029697061" lon="7.938311984762549">
        <ele>1246.5</ele>
        <time>2010-07-18T09:51:50Z</time>
      </trkpt>
      <trkpt lat="45.860790023580194" lon="7.93822699226439">
        <ele>1247.9000000000001</ele>
        <time>2010-07-18T09:51:37Z</time>
      </trkpt>
      <trkpt lat="45.860881973057985" lon="7.938134036958218">
        <ele>1247</ele>
        <time>2010-07-18T09:51:23Z</time>
      </trkpt>
      <trkpt lat="45.860885996371508" lon="7.938015013933182">
        <ele>1246.5</ele>
        <time>2010-07-18T09:51:14Z</time>
      </trkpt>
      <trkpt lat="45.860916003584862" lon="7.937890961766243">
        <ele>1246.5</ele>
        <time>2010-07-18T09:51:06Z</time>
      </trkpt>
      <trkpt lat="45.860999990254641" lon="7.937791971489787">
        <ele>1235.4000000000001</ele>
        <time>2010-07-18T09:50:11Z</time>
      </trkpt>
    </trkseg>
  </trk>

</gpx>